Wetterdaten: Freitag, 07.11.2014
Datum Zeit Temp. Aussen +5cm Feuchte Auss Luftdruck Regen Sonnenschein Regendauer Solar Windben
07.11.2014 00:00 4,3 C 2,8 C 92 % 1010,0 hPa 0,0 l/m 0 min 0 min 0 W/m 8,4 km/h (2 Bft)
07.11.2014 00:02 4,3 C 2,8 C 92 % 1010,0 hPa 0,0 l/m 0 min 0 min 0 W/m 8,4 km/h (2 Bft)
07.11.2014 00:05 4,2 C 2,8 C 92 % 1010,1 hPa 0,0 l/m 0 min 0 min 0 W/m 10,5 km/h (2 Bft)
07.11.2014 00:06 4,2 C 2,8 C 92 % 1010,1 hPa 0,0 l/m 0 min 0 min 0 W/m 10,5 km/h (2 Bft)
07.11.2014 00:08 4,2 C 2,8 C 92 % 1010,1 hPa 0,0 l/m 0 min 0 min 0 W/m 8,4 km/h (2 Bft)
07.11.2014 00:10 4,2 C 2,8 C 92 % 1010,0 hPa 0,0 l/m 0 min 0 min 0 W/m 8,4 km/h (2 Bft)
07.11.2014 00:12 4,2 C 2,8 C 92 % 1010,1 hPa 0,0 l/m 0 min 0 min 0 W/m 8,4 km/h (2 Bft)
07.11.2014 00:14 4,2 C 2,8 C 93 % 1010,1 hPa 0,0 l/m 0 min 0 min 0 W/m 14,6 km/h (3 Bft)
07.11.2014 00:16 4,2 C 2,8 C 93 % 1010,2 hPa 0,0 l/m 0 min 0 min 0 W/m 8,4 km/h (2 Bft)
07.11.2014 00:18 4,1 C 2,8 C 93 % 1010,2 hPa 0,0 l/m 0 min 0 min 0 W/m 8,4 km/h (2 Bft)
07.11.2014 00:20 4,1 C 2,8 C 93 % 1010,1 hPa 0,0 l/m 0 min 0 min 0 W/m 10,5 km/h (2 Bft)
07.11.2014 00:22 4,1 C 2,8 C 93 % 1010,1 hPa 0,0 l/m 0 min 0 min 0 W/m 8,4 km/h (2 Bft)
07.11.2014 00:24 4,1 C 2,2 C 93 % 1010,1 hPa 0,0 l/m 0 min 0 min 0 W/m 12,6 km/h (3 Bft)
07.11.2014 00:26 4,0 C 2,2 C 93 % 1010,1 hPa 0,0 l/m 0 min 0 min 0 W/m 8,4 km/h (2 Bft)
07.11.2014 00:28 4,0 C 2,2 C 93 % 1010,0 hPa 0,0 l/m 0 min 0 min 0 W/m 10,5 km/h (2 Bft)
07.11.2014 00:30 4,0 C 2,2 C 93 % 1010,1 hPa 0,0 l/m 0 min 0 min 0 W/m 8,4 km/h (2 Bft)
07.11.2014 00:32 3,9 C 2,2 C 93 % 1010,1 hPa 0,0 l/m 0 min 0 min 0 W/m 10,5 km/h (2 Bft)
07.11.2014 00:34 3,9 C 2,8 C 93 % 1010,1 hPa 0,0 l/m 0 min 0 min 0 W/m 10,5 km/h (2 Bft)
07.11.2014 00:36 3,9 C 2,8 C 93 % 1010,0 hPa 0,0 l/m 0 min 0 min 0 W/m 8,4 km/h (2 Bft)
07.11.2014 00:38 3,9 C 2,8 C 93 % 1010,0 hPa 0,0 l/m 0 min 0 min 0 W/m 10,5 km/h (2 Bft)
07.11.2014 00:40 3,9 C 2,2 C 93 % 1010,0 hPa 0,0 l/m 0 min 0 min 0 W/m 8,4 km/h (2 Bft)
07.11.2014 00:42 3,9 C 2,2 C 93 % 1010,0 hPa 0,0 l/m 0 min 0 min 0 W/m 10,5 km/h (2 Bft)
07.11.2014 00:44 3,9 C 2,2 C 93 % 1010,0 hPa 0,0 l/m 0 min 0 min 0 W/m 8,4 km/h (2 Bft)
07.11.2014 00:46 3,8 C 2,2 C 93 % 1010,0 hPa 0,0 l/m 0 min 0 min 0 W/m 10,5 km/h (2 Bft)
07.11.2014 00:48 3,8 C 2,2 C 93 % 1010,0 hPa 0,0 l/m 0 min 0 min 0 W/m 8,4 km/h (2 Bft)
07.11.2014 00:50 3,8 C 2,2 C 93 % 1010,0 hPa 0,0 l/m 0 min 0 min 0 W/m 10,5 km/h (2 Bft)
07.11.2014 00:52 3,8 C 2,2 C 93 % 1010,0 hPa 0,0 l/m 0 min 0 min 0 W/m 10,5 km/h (2 Bft)
07.11.2014 00:54 3,8 C 2,2 C 93 % 1010,0 hPa 0,0 l/m 0 min 0 min 0 W/m 8,4 km/h (2 Bft)
07.11.2014 00:56 3,8 C 2,2 C 93 % 1009,9 hPa 0,0 l/m 0 min 0 min 0 W/m 10,5 km/h (2 Bft)
07.11.2014 00:58 3,7 C 2,2 C 93 % 1009,9 hPa 0,0 l/m 0 min 0 min 0 W/m 12,6 km/h (3 Bft)
07.11.2014 01:00 3,7 C 2,2 C 93 % 1009,9 hPa 0,0 l/m 0 min 0 min 0 W/m 8,4 km/h (2 Bft)
07.11.2014 01:02 3,7 C 2,2 C 93 % 1009,8 hPa 0,0 l/m 0 min 0 min 0 W/m 10,5 km/h (2 Bft)
07.11.2014 01:04 3,7 C 2,2 C 93 % 1009,8 hPa 0,0 l/m 0 min 0 min 0 W/m 12,6 km/h (3 Bft)
07.11.2014 01:06 3,7 C 2,2 C 93 % 1009,7 hPa 0,0 l/m 0 min 0 min 0 W/m 10,5 km/h (2 Bft)
07.11.2014 01:08 3,7 C 2,2 C 93 % 1009,8 hPa 0,0 l/m 0 min 0 min 0 W/m 8,4 km/h (2 Bft)
07.11.2014 01:10 3,7 C 2,2 C 94 % 1009,8 hPa 0,0 l/m 0 min 0 min 0 W/m 12,6 km/h (3 Bft)
07.11.2014 01:12 3,7 C 2,2 C 94 % 1009,8 hPa 0,0 l/m 0 min 0 min 0 W/m 8,4 km/h (2 Bft)
07.11.2014 01:14 3,6 C 2,2 C 94 % 1009,8 hPa 0,0 l/m 0 min 0 min 0 W/m 8,4 km/h (2 Bft)
07.11.2014 01:16 3,6 C 2,2 C 93 % 1009,7 hPa 0,0 l/m 0 min 0 min 0 W/m 8,4 km/h (2 Bft)
07.11.2014 01:18 3,6 C 2,2 C 93 % 1009,7 hPa 0,0 l/m 0 min 0 min 0 W/m 8,4 km/h (2 Bft)
07.11.2014 01:20 3,6 C 2,2 C 94 % 1009,7 hPa 0,0 l/m 0 min 0 min 0 W/m 10,5 km/h (2 Bft)
07.11.2014 01:22 3,6 C 2,2 C 94 % 1009,7 hPa 0,0 l/m 0 min 0 min 0 W/m 10,5 km/h (2 Bft)
07.11.2014 01:24 3,5 C 2,2 C 94 % 1009,7 hPa 0,0 l/m 0 min 0 min 0 W/m 10,5 km/h (2 Bft)
07.11.2014 01:26 3,5 C 2,2 C 94 % 1009,7 hPa 0,0 l/m 0 min 0 min 0 W/m 6,3 km/h (2 Bft)
07.11.2014 01:28 3,5 C 2,2 C 94 % 1009,6 hPa 0,0 l/m 0 min 0 min 0 W/m 8,4 km/h (2 Bft)
07.11.2014 01:30 3,5 C 2,2 C 94 % 1009,7 hPa 0,0 l/m 0 min 0 min 0 W/m 6,3 km/h (2 Bft)
07.11.2014 01:32 3,4 C 2,2 C 94 % 1009,6 hPa 0,0 l/m 0 min 0 min 0 W/m 10,5 km/h (2 Bft)
07.11.2014 01:34 3,4 C 2,2 C 94 % 1009,7 hPa 0,0 l/m 0 min 0 min 0 W/m 8,4 km/h (2 Bft)
07.11.2014 01:36 3,4 C 2,2 C 94 % 1009,5 hPa 0,0 l/m 0 min 0 min 0 W/m 8,4 km/h (2 Bft)
07.11.2014 01:38 3,4 C 2,2 C 94 % 1009,6 hPa 0,0 l/m 0 min 0 min 0 W/m 10,5 km/h (2 Bft)
07.11.2014 01:40 3,4 C 2,2 C 94 % 1009,6 hPa 0,0 l/m 0 min 0 min 0 W/m 12,6 km/h (3 Bft)
07.11.2014 01:42 3,4 C 2,2 C 94 % 1009,6 hPa 0,0 l/m 0 min 0 min 0 W/m 8,4 km/h (2 Bft)
07.11.2014 01:44 3,4 C 2,2 C 94 % 1009,6 hPa 0,0 l/m 0 min 0 min 0 W/m 8,4 km/h (2 Bft)
07.11.2014 01:46 3,3 C 2,2 C 94 % 1009,6 hPa 0,0 l/m 0 min 0 min 0 W/m 10,5 km/h (2 Bft)
07.11.2014 01:48 3,3 C 2,2 C 94 % 1009,5 hPa 0,0 l/m 0 min 0 min 0 W/m 10,5 km/h (2 Bft)
07.11.2014 01:50 3,3 C 2,2 C 94 % 1009,4 hPa 0,0 l/m 0 min 0 min 0 W/m 8,4 km/h (2 Bft)
07.11.2014 01:52 3,3 C 2,2 C 94 % 1009,4 hPa 0,0 l/m 0 min 0 min 0 W/m 10,5 km/h (2 Bft)
07.11.2014 01:54 3,3 C 2,2 C 94 % 1009,4 hPa 0,0 l/m 0 min 0 min 0 W/m 12,6 km/h (3 Bft)
07.11.2014 01:56 3,3 C 2,2 C 94 % 1009,4 hPa 0,0 l/m 0 min 0 min 0 W/m 8,4 km/h (2 Bft)
07.11.2014 01:58 3,3 C 2,2 C 94 % 1009,3 hPa 0,0 l/m 0 min 0 min 0 W/m 6,3 km/h (2 Bft)
07.11.2014 02:00 3,3 C 2,2 C 94 % 1009,3 hPa 0,0 l/m 0 min 0 min 0 W/m 8,4 km/h (2 Bft)
07.11.2014 02:02 3,2 C 2,2 C 94 % 1009,3 hPa 0,0 l/m 0 min 0 min 0 W/m 10,5 km/h (2 Bft)
07.11.2014 02:04 3,3 C 2,2 C 94 % 1009,3 hPa 0,0 l/m 0 min 0 min 0 W/m 10,5 km/h (2 Bft)
07.11.2014 02:06 3,2 C 2,2 C 94 % 1009,3 hPa 0,0 l/m 0 min 0 min 0 W/m 10,5 km/h (2 Bft)
07.11.2014 02:08 3,2 C 1,7 C 94 % 1009,3 hPa 0,0 l/m 0 min 0 min 0 W/m 8,4 km/h (2 Bft)
07.11.2014 02:10 3,2 C 1,7 C 94 % 1009,2 hPa 0,0 l/m 0 min 0 min 0 W/m 10,5 km/h (2 Bft)
07.11.2014 02:12 3,2 C 1,7 C 94 % 1009,2 hPa 0,0 l/m 0 min 0 min 0 W/m 8,4 km/h (2 Bft)
07.11.2014 02:14 3,2 C 1,7 C 94 % 1009,2 hPa 0,0 l/m 0 min 0 min 0 W/m 12,6 km/h (3 Bft)
07.11.2014 02:16 3,2 C 1,7 C 94 % 1009,1 hPa 0,0 l/m 0 min 0 min 0 W/m 6,3 km/h (2 Bft)
07.11.2014 02:18 3,2 C 1,7 C 94 % 1009,1 hPa 0,0 l/m 0 min 0 min 0 W/m 10,5 km/h (2 Bft)
07.11.2014 02:20 3,2 C 1,7 C 94 % 1009,1 hPa 0,0 l/m 0 min 0 min 0 W/m 14,6 km/h (3 Bft)
07.11.2014 02:22 3,2 C 1,7 C 94 % 1009,1 hPa 0,0 l/m 0 min 0 min 0 W/m 12,6 km/h (3 Bft)
07.11.2014 02:24 3,1 C 1,7 C 94 % 1009,1 hPa 0,0 l/m 0 min 0 min 0 W/m 14,6 km/h (3 Bft)
07.11.2014 02:26 3,1 C 2,2 C 94 % 1009,0 hPa 0,0 l/m 0 min 0 min 0 W/m 10,5 km/h (2 Bft)
07.11.2014 02:28 3,1 C 2,2 C 94 % 1009,0 hPa 0,0 l/m 0 min 0 min 0 W/m 14,6 km/h (3 Bft)
07.11.2014 02:30 3,1 C 2,2 C 94 % 1009,0 hPa 0,0 l/m 0 min 0 min 0 W/m 18,8 km/h (3 Bft)
07.11.2014 02:32 3,1 C 2,2 C 94 % 1009,0 hPa 0,0 l/m 0 min 0 min 0 W/m 12,6 km/h (3 Bft)
07.11.2014 02:34 3,1 C 2,2 C 94 % 1009,0 hPa 0,0 l/m 0 min 0 min 0 W/m 10,5 km/h (2 Bft)
07.11.2014 02:36 3,1 C 2,2 C 94 % 1009,0 hPa 0,0 l/m 0 min 0 min 0 W/m 10,5 km/h (2 Bft)
07.11.2014 02:38 3,1 C 2,2 C 94 % 1008,9 hPa 0,0 l/m 0 min 0 min 0 W/m 10,5 km/h (2 Bft)
07.11.2014 02:40 3,1 C 2,2 C 94 % 1008,9 hPa 0,0 l/m 0 min 0 min 0 W/m 12,6 km/h (3 Bft)
07.11.2014 02:42 3,1 C 2,2 C 95 % 1008,8 hPa 0,0 l/m 0 min 0 min 0 W/m 16,7 km/h (3 Bft)
07.11.2014 02:44 3,1 C 2,2 C 95 % 1008,8 hPa 0,0 l/m 0 min 0 min 0 W/m 16,7 km/h (3 Bft)
07.11.2014 02:46 3,2 C 2,2 C 95 % 1008,8 hPa 0,0 l/m 0 min 0 min 0 W/m 10,5 km/h (2 Bft)
07.11.2014 02:48 3,2 C 2,2 C 95 % 1008,9 hPa 0,0 l/m 0 min 0 min 0 W/m 12,6 km/h (3 Bft)
07.11.2014 02:50 3,2 C 2,2 C 95 % 1008,6 hPa 0,0 l/m 0 min 0 min 0 W/m 16,7 km/h (3 Bft)
07.11.2014 02:52 3,2 C 2,2 C 95 % 1008,7 hPa 0,0 l/m 0 min 0 min 0 W/m 14,6 km/h (3 Bft)
07.11.2014 02:54 3,2 C 2,2 C 95 % 1008,7 hPa 0,0 l/m 0 min 0 min 0 W/m 12,6 km/h (3 Bft)
07.11.2014 02:56 3,2 C 2,2 C 95 % 1008,7 hPa 0,0 l/m 0 min 0 min 0 W/m 14,6 km/h (3 Bft)
07.11.2014 02:58 3,2 C 2,2 C 95 % 1008,6 hPa 0,0 l/m 0 min 0 min 0 W/m 23,0 km/h (4 Bft)
07.11.2014 03:00 3,2 C 2,2 C 95 % 1008,6 hPa 0,0 l/m 0 min 0 min 0 W/m 16,7 km/h (3 Bft)
07.11.2014 03:02 3,2 C 2,2 C 95 % 1008,5 hPa 0,0 l/m 0 min 0 min 0 W/m 16,7 km/h (3 Bft)
07.11.2014 03:04 3,2 C 2,2 C 95 % 1008,5 hPa 0,0 l/m 0 min 0 min 0 W/m 16,7 km/h (3 Bft)
07.11.2014 03:06 3,2 C 2,2 C 95 % 1008,5 hPa 0,0 l/m 0 min 0 min 0 W/m 16,7 km/h (3 Bft)
07.11.2014 03:08 3,2 C 2,2 C 95 % 1008,5 hPa 0,0 l/m 0 min 0 min 0 W/m 25,1 km/h (4 Bft)
07.11.2014 03:10 3,2 C 2,2 C 95 % 1008,5 hPa 0,0 l/m 0 min 0 min 0 W/m 25,1 km/h (4 Bft)
07.11.2014 03:12 3,2 C 2,2 C 95 % 1008,5 hPa 0,0 l/m 0 min 0 min 0 W/m 16,7 km/h (3 Bft)
07.11.2014 03:14 3,2 C 2,2 C 95 % 1008,5 hPa 0,0 l/m 0 min 0 min 0 W/m 14,6 km/h (3 Bft)
07.11.2014 03:16 3,3 C 2,2 C 95 % 1008,5 hPa 0,0 l/m 0 min 0 min 0 W/m 16,7 km/h (3 Bft)
07.11.2014 03:18 3,3 C 2,2 C 95 % 1008,5 hPa 0,0 l/m 0 min 0 min 0 W/m 29,3 km/h (5 Bft)
07.11.2014 03:20 3,3 C 2,2 C 95 % 1008,5 hPa 0,0 l/m 0 min 0 min 0 W/m 16,7 km/h (3 Bft)
07.11.2014 03:22 3,3 C 2,2 C 95 % 1008,4 hPa 0,0 l/m 0 min 0 min 0 W/m 20,9 km/h (4 Bft)
07.11.2014 03:24 3,3 C 2,2 C 95 % 1008,4 hPa 0,0 l/m 0 min 0 min 0 W/m 16,7 km/h (3 Bft)
07.11.2014 03:26 3,4 C 2,2 C 95 % 1008,4 hPa 0,0 l/m 0 min 0 min 0 W/m 16,7 km/h (3 Bft)
07.11.2014 03:28 3,4 C 2,2 C 95 % 1008,4 hPa 0,0 l/m 0 min 0 min 0 W/m 18,8 km/h (3 Bft)
07.11.2014 03:30 3,4 C 2,2 C 96 % 1008,4 hPa 0,0 l/m 0 min 0 min 0 W/m 18,8 km/h (3 Bft)
07.11.2014 03:32 3,4 C 2,2 C 96 % 1008,4 hPa 0,0 l/m 0 min 0 min 0 W/m 20,9 km/h (4 Bft)
07.11.2014 03:34 3,5 C 2,8 C 96 % 1008,3 hPa 0,0 l/m 0 min 0 min 0 W/m 20,9 km/h (4 Bft)
07.11.2014 03:36 3,5 C 2,8 C 96 % 1008,3 hPa 0,0 l/m 0 min 0 min 0 W/m 16,7 km/h (3 Bft)
07.11.2014 03:38 3,5 C 2,2 C 96 % 1008,3 hPa 0,0 l/m 0 min 0 min 0 W/m 23,0 km/h (4 Bft)
07.11.2014 03:40 3,6 C 2,2 C 96 % 1008,2 hPa 0,0 l/m 0 min 0 min 0 W/m 23,0 km/h (4 Bft)
07.11.2014 03:42 3,6 C 2,8 C 96 % 1008,1 hPa 0,0 l/m 0 min 0 min 0 W/m 29,3 km/h (5 Bft)
07.11.2014 03:44 3,6 C 2,8 C 96 % 1008,1 hPa 0,0 l/m 0 min 0 min 0 W/m 18,8 km/h (3 Bft)
07.11.2014 03:46 3,6 C 2,8 C 96 % 1008,1 hPa 0,0 l/m 0 min 0 min 0 W/m 25,1 km/h (4 Bft)
07.11.2014 03:48 3,6 C 2,8 C 96 % 1008,0 hPa 0,0 l/m 0 min 0 min 0 W/m 25,1 km/h (4 Bft)
07.11.2014 03:50 3,6 C 2,8 C 96 % 1007,9 hPa 0,0 l/m 0 min 0 min 0 W/m 20,9 km/h (4 Bft)
07.11.2014 03:52 3,6 C 2,8 C 96 % 1007,9 hPa 0,0 l/m 0 min 0 min 0 W/m 20,9 km/h (4 Bft)
07.11.2014 03:54 3,6 C 2,8 C 96 % 1007,8 hPa 0,0 l/m 0 min 0 min 0 W/m 16,7 km/h (3 Bft)
07.11.2014 03:56 3,6 C 2,8 C 96 % 1007,8 hPa 0,0 l/m 0 min 0 min 0 W/m 20,9 km/h (4 Bft)
07.11.2014 03:58 3,7 C 2,8 C 96 % 1007,7 hPa 0,0 l/m 0 min 0 min 0 W/m 23,0 km/h (4 Bft)
07.11.2014 04:00 3,6 C 2,8 C 96 % 1007,7 hPa 0,0 l/m 0 min 0 min 0 W/m 20,9 km/h (4 Bft)
07.11.2014 04:05 3,7 C 2,8 C 96 % 1007,6 hPa 0,0 l/m 0 min 0 min 0 W/m 23,0 km/h (4 Bft)
07.11.2014 04:06 3,7 C 2,8 C 96 % 1007,6 hPa 0,0 l/m 0 min 0 min 0 W/m 16,7 km/h (3 Bft)
07.11.2014 04:08 3,7 C 2,8 C 96 % 1007,6 hPa 0,0 l/m 0 min 0 min 0 W/m 20,9 km/h (4 Bft)
07.11.2014 04:10 3,7 C 2,8 C 96 % 1007,7 hPa 0,0 l/m 0 min 0 min 0 W/m 18,8 km/h (3 Bft)
07.11.2014 04:12 3,7 C 2,8 C 96 % 1007,7 hPa 0,0 l/m 0 min 0 min 0 W/m 20,9 km/h (4 Bft)
07.11.2014 04:14 3,6 C 2,8 C 96 % 1007,6 hPa 0,0 l/m 0 min 0 min 0 W/m 18,8 km/h (3 Bft)
07.11.2014 04:16 3,6 C 2,8 C 96 % 1007,6 hPa 0,0 l/m 0 min 0 min 0 W/m 25,1 km/h (4 Bft)
07.11.2014 04:18 3,7 C 2,8 C 96 % 1007,6 hPa 0,0 l/m 0 min 0 min 0 W/m 29,3 km/h (5 Bft)
07.11.2014 04:20 3,7 C 2,8 C 96 % 1007,6 hPa 0,0 l/m 0 min 0 min 0 W/m 25,1 km/h (4 Bft)
07.11.2014 04:22 3,7 C 2,8 C 96 % 1007,5 hPa 0,0 l/m 0 min 0 min 0 W/m 25,1 km/h (4 Bft)
07.11.2014 04:24 3,7 C 2,8 C 96 % 1007,6 hPa 0,0 l/m 0 min 0 min 0 W/m 27,2 km/h (4 Bft)
07.11.2014 04:26 3,7 C 2,8 C 96 % 1007,5 hPa 0,0 l/m 0 min 0 min 0 W/m 20,9 km/h (4 Bft)
07.11.2014 04:28 3,7 C 2,8 C 96 % 1007,4 hPa 0,0 l/m 0 min 0 min 0 W/m 29,3 km/h (5 Bft)
07.11.2014 04:30 3,7 C 2,8 C 96 % 1007,4 hPa 0,0 l/m 0 min 0 min 0 W/m 25,1 km/h (4 Bft)
07.11.2014 04:32 3,6 C 2,8 C 96 % 1007,3 hPa 0,0 l/m 0 min 0 min 0 W/m 25,1 km/h (4 Bft)
07.11.2014 04:34 3,7 C 2,8 C 96 % 1007,3 hPa 0,0 l/m 0 min 0 min 0 W/m 25,1 km/h (4 Bft)
07.11.2014 04:36 3,6 C 2,8 C 96 % 1007,3 hPa 0,0 l/m 0 min 0 min 0 W/m 23,0 km/h (4 Bft)
07.11.2014 04:38 3,6 C 2,8 C 96 % 1007,2 hPa 0,0 l/m 0 min 0 min 0 W/m 20,9 km/h (4 Bft)
07.11.2014 04:40 3,6 C 2,8 C 96 % 1007,2 hPa 0,0 l/m 0 min 0 min 0 W/m 25,1 km/h (4 Bft)
07.11.2014 04:42 3,6 C 2,8 C 96 % 1007,3 hPa 0,0 l/m 0 min 0 min 0 W/m 25,1 km/h (4 Bft)
07.11.2014 04:44 3,6 C 2,2 C 96 % 1007,1 hPa 0,0 l/m 0 min 0 min 0 W/m 23,0 km/h (4 Bft)
07.11.2014 04:46 3,6 C 2,2 C 96 % 1007,0 hPa 0,0 l/m 0 min 0 min 0 W/m 25,1 km/h (4 Bft)
07.11.2014 04:48 3,6 C 2,2 C 96 % 1006,9 hPa 0,0 l/m 0 min 0 min 0 W/m 18,8 km/h (3 Bft)
07.11.2014 04:50 3,6 C 2,8 C 96 % 1006,9 hPa 0,0 l/m 0 min 0 min 0 W/m 16,7 km/h (3 Bft)
07.11.2014 04:52 3,6 C 2,8 C 96 % 1006,8 hPa 0,0 l/m 0 min 0 min 0 W/m 25,1 km/h (4 Bft)
07.11.2014 04:54 3,6 C 2,2 C 96 % 1006,8 hPa 0,0 l/m 0 min 0 min 0 W/m 16,7 km/h (3 Bft)
07.11.2014 04:56 3,6 C 2,2 C 96 % 1006,8 hPa 0,0 l/m 0 min 0 min 0 W/m 20,9 km/h (4 Bft)
07.11.2014 04:58 3,6 C 2,8 C 96 % 1006,8 hPa 0,0 l/m 0 min 0 min 0 W/m 18,8 km/h (3 Bft)
07.11.2014 05:00 3,6 C 2,8 C 96 % 1006,7 hPa 0,0 l/m 0 min 0 min 0 W/m 16,7 km/h (3 Bft)
07.11.2014 05:02 3,6 C 2,2 C 96 % 1006,7 hPa 0,0 l/m 0 min 0 min 0 W/m 14,6 km/h (3 Bft)
07.11.2014 05:04 3,6 C 2,2 C 96 % 1006,7 hPa 0,0 l/m 0 min 0 min 0 W/m 16,7 km/h (3 Bft)
07.11.2014 05:06 3,6 C 2,2 C 96 % 1006,7 hPa 0,0 l/m 0 min 0 min 0 W/m 14,6 km/h (3 Bft)
07.11.2014 05:08 3,6 C 2,2 C 96 % 1006,7 hPa 0,0 l/m 0 min 0 min 0 W/m 18,8 km/h (3 Bft)
07.11.2014 05:10 3,6 C 2,2 C 96 % 1006,6 hPa 0,0 l/m 0 min 0 min 0 W/m 20,9 km/h (4 Bft)
07.11.2014 05:12 3,6 C 2,2 C 96 % 1006,6 hPa 0,0 l/m 0 min 0 min 0 W/m 14,6 km/h (3 Bft)
07.11.2014 05:14 3,6 C 2,2 C 96 % 1006,5 hPa 0,0 l/m 0 min 0 min 0 W/m 23,0 km/h (4 Bft)
07.11.2014 05:16 3,6 C 2,2 C 96 % 1006,5 hPa 0,0 l/m 0 min 0 min 0 W/m 18,8 km/h (3 Bft)
07.11.2014 05:18 3,5 C 2,2 C 96 % 1006,6 hPa 0,0 l/m 0 min 0 min 0 W/m 20,9 km/h (4 Bft)
07.11.2014 05:20 3,5 C 2,2 C 96 % 1006,6 hPa 0,0 l/m 0 min 0 min 0 W/m 14,6 km/h (3 Bft)
07.11.2014 05:22 3,5 C 2,2 C 96 % 1006,6 hPa 0,0 l/m 0 min 0 min 0 W/m 23,0 km/h (4 Bft)
07.11.2014 05:24 3,5 C 2,2 C 96 % 1006,5 hPa 0,0 l/m 0 min 0 min 0 W/m 25,1 km/h (4 Bft)
07.11.2014 05:26 3,5 C 2,2 C 96 % 1006,5 hPa 0,0 l/m 0 min 0 min 0 W/m 16,7 km/h (3 Bft)
07.11.2014 05:28 3,5 C 2,2 C 96 % 1006,5 hPa 0,0 l/m 0 min 0 min 0 W/m 25,1 km/h (4 Bft)
07.11.2014 05:30 3,5 C 2,2 C 96 % 1006,5 hPa 0,0 l/m 0 min 0 min 0 W/m 20,9 km/h (4 Bft)
07.11.2014 05:32 3,5 C 2,2 C 96 % 1006,5 hPa 0,0 l/m 0 min 0 min 0 W/m 20,9 km/h (4 Bft)
07.11.2014 05:34 3,5 C 2,2 C 96 % 1006,5 hPa 0,0 l/m 0 min 0 min 0 W/m 23,0 km/h (4 Bft)
07.11.2014 05:36 3,5 C 2,2 C 96 % 1006,6 hPa 0,0 l/m 0 min 0 min 0 W/m 18,8 km/h (3 Bft)
07.11.2014 05:38 3,5 C 2,2 C 96 % 1006,6 hPa 0,0 l/m 0 min 0 min 0 W/m 23,0 km/h (4 Bft)
07.11.2014 05:40 3,5 C 2,2 C 96 % 1006,5 hPa 0,0 l/m 0 min 0 min 0 W/m 27,2 km/h (4 Bft)
07.11.2014 05:42 3,5 C 2,2 C 96 % 1006,5 hPa 0,0 l/m 0 min 0 min 0 W/m 23,0 km/h (4 Bft)
07.11.2014 05:44 3,5 C 2,2 C 96 % 1006,5 hPa 0,0 l/m 0 min 0 min 0 W/m 23,0 km/h (4 Bft)
07.11.2014 05:46 3,5 C 2,2 C 96 % 1006,4 hPa 0,0 l/m 0 min 0 min 0 W/m 25,1 km/h (4 Bft)
07.11.2014 05:48 3,5 C 2,2 C 96 % 1006,4 hPa 0,0 l/m 0 min 0 min 0 W/m 18,8 km/h (3 Bft)
07.11.2014 05:50 3,5 C 2,2 C 96 % 1006,4 hPa 0,0 l/m 0 min 0 min 0 W/m 14,6 km/h (3 Bft)
07.11.2014 05:52 3,5 C 2,2 C 96 % 1006,4 hPa 0,0 l/m 0 min 0 min 0 W/m 18,8 km/h (3 Bft)
07.11.2014 05:54 3,5 C 2,2 C 96 % 1006,3 hPa 0,0 l/m 0 min 0 min 0 W/m 20,9 km/h (4 Bft)
07.11.2014 05:56 3,5 C 2,2 C 96 % 1006,2 hPa 0,0 l/m 0 min 0 min 0 W/m 25,1 km/h (4 Bft)
07.11.2014 05:58 3,5 C 2,2 C 96 % 1006,2 hPa 0,0 l/m 0 min 0 min 0 W/m 23,0 km/h (4 Bft)
07.11.2014 06:00 3,4 C 2,2 C 96 % 1006,1 hPa 0,0 l/m 0 min 0 min 0 W/m 20,9 km/h (4 Bft)
07.11.2014 06:02 3,5 C 2,2 C 96 % 1006,0 hPa 0,0 l/m 0 min 0 min 0 W/m 29,3 km/h (5 Bft)
07.11.2014 06:05 3,4 C 2,2 C 96 % 1006,0 hPa 0,0 l/m 0 min 0 min 0 W/m 23,0 km/h (4 Bft)
07.11.2014 06:08 3,5 C 2,2 C 96 % 1006,0 hPa 0,0 l/m 0 min 0 min 0 W/m 25,1 km/h (4 Bft)
07.11.2014 06:10 3,5 C 2,2 C 96 % 1006,0 hPa 0,0 l/m 0 min 0 min 0 W/m 20,9 km/h (4 Bft)
07.11.2014 06:12 3,5 C 2,2 C 96 % 1006,0 hPa 0,0 l/m 0 min 0 min 0 W/m 25,1 km/h (4 Bft)
07.11.2014 06:14 3,5 C 2,2 C 96 % 1006,0 hPa 0,0 l/m 0 min 0 min 0 W/m 16,7 km/h (3 Bft)
07.11.2014 06:16 3,5 C 2,2 C 96 % 1006,0 hPa 0,0 l/m 0 min 0 min 0 W/m 29,3 km/h (5 Bft)
07.11.2014 06:18 3,4 C 2,2 C 96 % 1006,1 hPa 0,0 l/m 0 min 0 min 0 W/m 27,2 km/h (4 Bft)
07.11.2014 06:20 3,4 C 2,2 C 96 % 1006,0 hPa 0,0 l/m 0 min 0 min 0 W/m 23,0 km/h (4 Bft)
07.11.2014 06:22 3,4 C 2,2 C 96 % 1006,0 hPa 0,0 l/m 0 min 0 min 0 W/m 25,1 km/h (4 Bft)
07.11.2014 06:24 3,4 C 2,2 C 96 % 1006,1 hPa 0,0 l/m 0 min 0 min 0 W/m 16,7 km/h (3 Bft)
07.11.2014 06:26 3,4 C 2,2 C 96 % 1006,0 hPa 0,2 l/m 0 min 0 min 0 W/m 14,6 km/h (3 Bft)
07.11.2014 06:28 3,4 C 2,2 C 96 % 1006,0 hPa 0,0 l/m 0 min 0 min 0 W/m 20,9 km/h (4 Bft)
07.11.2014 06:30 3,4 C 2,2 C 96 % 1006,0 hPa 0,0 l/m 0 min 0 min 0 W/m 25,1 km/h (4 Bft)
07.11.2014 06:32 3,4 C 2,2 C 96 % 1005,9 hPa 0,0 l/m 0 min 0 min 0 W/m 18,8 km/h (3 Bft)
07.11.2014 06:34 3,4 C 2,2 C 96 % 1005,9 hPa 0,0 l/m 0 min 0 min 0 W/m 23,0 km/h (4 Bft)
07.11.2014 06:36 3,4 C 2,2 C 96 % 1005,8 hPa 0,0 l/m 0 min 0 min 0 W/m 25,1 km/h (4 Bft)
07.11.2014 06:38 3,4 C 2,2 C 96 % 1005,8 hPa 0,0 l/m 0 min 0 min 0 W/m 20,9 km/h (4 Bft)
07.11.2014 06:40 3,4 C 2,2 C 96 % 1005,8 hPa 0,0 l/m 0 min 0 min 0 W/m 25,1 km/h (4 Bft)
07.11.2014 06:42 3,4 C 2,2 C 96 % 1005,8 hPa 0,0 l/m 0 min 0 min 0 W/m 20,9 km/h (4 Bft)
07.11.2014 06:44 3,4 C 2,2 C 96 % 1005,8 hPa 0,0 l/m 0 min 0 min 0 W/m 25,1 km/h (4 Bft)
07.11.2014 06:46 3,4 C 2,2 C 96 % 1005,8 hPa 0,0 l/m 0 min 0 min 0 W/m 23,0 km/h (4 Bft)
07.11.2014 06:48 3,4 C 2,2 C 96 % 1005,8 hPa 0,0 l/m 0 min 0 min 0 W/m 23,0 km/h (4 Bft)
07.11.2014 06:50 3,4 C 2,2 C 96 % 1005,8 hPa 0,0 l/m 0 min 0 min 0 W/m 23,0 km/h (4 Bft)
07.11.2014 06:52 3,4 C 2,2 C 96 % 1005,8 hPa 0,0 l/m 0 min 0 min 0 W/m 23,0 km/h (4 Bft)
07.11.2014 06:54 3,4 C 2,2 C 96 % 1005,8 hPa 0,0 l/m 0 min 0 min 0 W/m 27,2 km/h (4 Bft)
07.11.2014 06:56 3,4 C 2,2 C 96 % 1005,7 hPa 0,0 l/m 0 min 0 min 0 W/m 16,7 km/h (3 Bft)
07.11.2014 06:58 3,4 C 2,2 C 96 % 1005,7 hPa 0,0 l/m 0 min 0 min 0 W/m 18,8 km/h (3 Bft)
07.11.2014 07:00 3,4 C 2,2 C 96 % 1005,7 hPa 0,0 l/m 0 min 0 min 0 W/m 23,0 km/h (4 Bft)
07.11.2014 07:02 3,4 C 2,2 C 96 % 1005,7 hPa 0,0 l/m 0 min 0 min 0 W/m 27,2 km/h (4 Bft)
07.11.2014 07:04 3,4 C 2,2 C 96 % 1005,6 hPa 0,0 l/m 0 min 0 min 0 W/m 14,6 km/h (3 Bft)
07.11.2014 07:06 3,4 C 2,2 C 96 % 1005,6 hPa 0,0 l/m 0 min 0 min 0 W/m 23,0 km/h (4 Bft)
07.11.2014 07:08 3,4 C 2,2 C 96 % 1005,6 hPa 0,0 l/m 0 min 0 min 0 W/m 20,9 km/h (4 Bft)
07.11.2014 07:10 3,4 C 2,2 C 96 % 1005,5 hPa 0,0 l/m 0 min 0 min 0 W/m 18,8 km/h (3 Bft)
07.11.2014 07:12 3,4 C 2,2 C 96 % 1005,4 hPa 0,0 l/m 0 min 0 min 0 W/m 18,8 km/h (3 Bft)
07.11.2014 07:14 3,3 C 2,2 C 96 % 1005,4 hPa 0,0 l/m 0 min 0 min 0 W/m 18,8 km/h (3 Bft)
07.11.2014 07:16 3,4 C 2,2 C 96 % 1005,4 hPa 0,0 l/m 0 min 0 min 0 W/m 16,7 km/h (3 Bft)
07.11.2014 07:18 3,3 C 2,2 C 96 % 1005,5 hPa 0,0 l/m 0 min 0 min 0 W/m 18,8 km/h (3 Bft)
07.11.2014 07:20 3,3 C 2,2 C 96 % 1005,4 hPa 0,0 l/m 0 min 0 min 0 W/m 23,0 km/h (4 Bft)
07.11.2014 07:22 3,3 C 2,2 C 96 % 1005,4 hPa 0,0 l/m 0 min 0 min 0 W/m 16,7 km/h (3 Bft)
07.11.2014 07:24 3,3 C 2,2 C 96 % 1005,5 hPa 0,0 l/m 0 min 0 min 0 W/m 25,1 km/h (4 Bft)
07.11.2014 07:26 3,3 C 2,2 C 96 % 1005,5 hPa 0,0 l/m 0 min 0 min 0 W/m 18,8 km/h (3 Bft)
07.11.2014 07:28 3,3 C 2,2 C 96 % 1005,4 hPa 0,0 l/m 0 min 0 min 0 W/m 18,8 km/h (3 Bft)
07.11.2014 07:30 3,3 C 2,2 C 96 % 1005,5 hPa 0,0 l/m 0 min 0 min 0 W/m 25,1 km/h (4 Bft)
07.11.2014 07:32 3,3 C 2,2 C 96 % 1005,4 hPa 0,0 l/m 0 min 0 min 0 W/m 18,8 km/h (3 Bft)
07.11.2014 07:34 3,3 C 2,2 C 96 % 1005,4 hPa 0,0 l/m 0 min 0 min 5 W/m 16,7 km/h (3 Bft)
07.11.2014 07:36 3,3 C 2,2 C 96 % 1005,4 hPa 0,0 l/m 0 min 0 min 5 W/m 18,8 km/h (3 Bft)
07.11.2014 07:38 3,3 C 2,2 C 96 % 1005,3 hPa 0,0 l/m 0 min 0 min 5 W/m 23,0 km/h (4 Bft)
07.11.2014 07:40 3,3 C 2,2 C 96 % 1005,3 hPa 0,0 l/m 0 min 0 min 6 W/m 14,6 km/h (3 Bft)
07.11.2014 07:42 3,3 C 2,2 C 96 % 1005,3 hPa 0,0 l/m 0 min 0 min 7 W/m 27,2 km/h (4 Bft)
07.11.2014 07:44 3,3 C 2,2 C 96 % 1005,3 hPa 0,0 l/m 0 min 0 min 8 W/m 18,8 km/h (3 Bft)
07.11.2014 07:46 3,3 C 2,2 C 96 % 1005,3 hPa 0,0 l/m 0 min 0 min 9 W/m 25,1 km/h (4 Bft)
07.11.2014 07:48 3,4 C 2,2 C 96 % 1005,2 hPa 0,0 l/m 0 min 0 min 11 W/m 18,8 km/h (3 Bft)
07.11.2014 07:50 3,3 C 2,2 C 96 % 1005,2 hPa 0,0 l/m 0 min 0 min 11 W/m 14,6 km/h (3 Bft)
07.11.2014 07:52 3,4 C 2,2 C 96 % 1005,2 hPa 0,0 l/m 0 min 0 min 12 W/m 20,9 km/h (4 Bft)
07.11.2014 07:54 3,4 C 2,2 C 96 % 1005,3 hPa 0,0 l/m 2 min 0 min 14 W/m 16,7 km/h (3 Bft)
07.11.2014 07:56 3,4 C 2,2 C 96 % 1005,3 hPa 0,0 l/m 0 min 0 min 15 W/m 18,8 km/h (3 Bft)
07.11.2014 07:58 3,4 C 2,2 C 96 % 1005,3 hPa 0,0 l/m 0 min 0 min 16 W/m 23,0 km/h (4 Bft)
07.11.2014 08:00 3,4 C 2,2 C 96 % 1005,4 hPa 0,0 l/m 0 min 0 min 14 W/m 23,0 km/h (4 Bft)
07.11.2014 08:02 3,4 C 2,2 C 96 % 1005,3 hPa 0,0 l/m 0 min 0 min 17 W/m 23,0 km/h (4 Bft)
07.11.2014 08:04 3,4 C 2,2 C 96 % 1005,4 hPa 0,0 l/m 0 min 0 min 19 W/m 25,1 km/h (4 Bft)
07.11.2014 08:06 3,4 C 2,8 C 96 % 1005,4 hPa 0,0 l/m 0 min 0 min 24 W/m 16,7 km/h (3 Bft)
07.11.2014 08:08 3,4 C 2,8 C 96 % 1005,4 hPa 0,0 l/m 0 min 0 min 26 W/m 14,6 km/h (3 Bft)
07.11.2014 08:10 3,4 C 2,8 C 96 % 1005,4 hPa 0,0 l/m 0 min 0 min 30 W/m 14,6 km/h (3 Bft)
07.11.2014 08:12 3,5 C 2,8 C 96 % 1005,4 hPa 0,0 l/m 0 min 0 min 29 W/m 20,9 km/h (4 Bft)
07.11.2014 08:14 3,5 C 2,8 C 96 % 1005,3 hPa 0,0 l/m 0 min 0 min 22 W/m 18,8 km/h (3 Bft)
07.11.2014 08:16 3,5 C 2,8 C 96 % 1005,3 hPa 0,0 l/m 0 min 0 min 22 W/m 20,9 km/h (4 Bft)
07.11.2014 08:18 3,6 C 2,8 C 96 % 1005,3 hPa 0,0 l/m 0 min 0 min 25 W/m 20,9 km/h (4 Bft)
07.11.2014 08:20 3,6 C 2,8 C 96 % 1005,2 hPa 0,0 l/m 0 min 0 min 26 W/m 18,8 km/h (3 Bft)
07.11.2014 08:22 3,6 C 2,8 C 96 % 1005,2 hPa 0,0 l/m 0 min 0 min 27 W/m 25,1 km/h (4 Bft)
07.11.2014 08:24 3,6 C 2,8 C 96 % 1005,2 hPa 0,0 l/m 0 min 0 min 28 W/m 16,7 km/h (3 Bft)
07.11.2014 08:26 3,7 C 2,8 C 96 % 1005,2 hPa 0,0 l/m 0 min 0 min 27 W/m 23,0 km/h (4 Bft)
07.11.2014 08:28 3,7 C 2,8 C 96 % 1005,2 hPa 0,0 l/m 0 min 0 min 27 W/m 18,8 km/h (3 Bft)
07.11.2014 08:30 3,7 C 2,8 C 96 % 1005,1 hPa 0,0 l/m 0 min 0 min 30 W/m 25,1 km/h (4 Bft)
07.11.2014 08:32 3,7 C 2,8 C 96 % 1005,1 hPa 0,0 l/m 0 min 0 min 35 W/m 23,0 km/h (4 Bft)
07.11.2014 08:34 3,8 C 2,8 C 96 % 1005,1 hPa 0,0 l/m 0 min 0 min 39 W/m 29,3 km/h (5 Bft)
07.11.2014 08:36 3,8 C 3,3 C 96 % 1005,0 hPa 0,0 l/m 0 min 0 min 43 W/m 23,0 km/h (4 Bft)
07.11.2014 08:38 3,8 C 3,3 C 96 % 1005,0 hPa 0,0 l/m 0 min 0 min 47 W/m 25,1 km/h (4 Bft)
07.11.2014 08:40 3,8 C 3,3 C 96 % 1005,0 hPa 0,0 l/m 0 min 0 min 53 W/m 25,1 km/h (4 Bft)
07.11.2014 08:42 3,9 C 3,3 C 96 % 1005,0 hPa 0,0 l/m 0 min 0 min 61 W/m 31,4 km/h (5 Bft)
07.11.2014 08:44 3,9 C 3,3 C 96 % 1004,9 hPa 0,0 l/m 2 min 0 min 71 W/m 29,3 km/h (5 Bft)
07.11.2014 08:46 3,9 C 3,3 C 96 % 1004,9 hPa 0,0 l/m 2 min 0 min 104 W/m 20,9 km/h (4 Bft)
07.11.2014 08:48 4,0 C 3,9 C 96 % 1004,9 hPa 0,0 l/m 2 min 0 min 100 W/m 29,3 km/h (5 Bft)
07.11.2014 08:50 4,1 C 3,9 C 96 % 1004,9 hPa 0,0 l/m 2 min 0 min 93 W/m 20,9 km/h (4 Bft)
07.11.2014 08:52 4,1 C 3,9 C 96 % 1004,8 hPa 0,0 l/m 2 min 0 min 98 W/m 18,8 km/h (3 Bft)
07.11.2014 08:54 4,2 C 3,9 C 96 % 1004,9 hPa 0,0 l/m 2 min 0 min 84 W/m 25,1 km/h (4 Bft)
07.11.2014 08:56 4,2 C 3,9 C 96 % 1004,8 hPa 0,0 l/m 0 min 0 min 78 W/m 20,9 km/h (4 Bft)
07.11.2014 08:58 4,3 C 3,9 C 96 % 1004,7 hPa 0,0 l/m 0 min 0 min 75 W/m 20,9 km/h (4 Bft)
07.11.2014 09:00 4,3 C 3,9 C 96 % 1004,8 hPa 0,0 l/m 0 min 0 min 74 W/m 20,9 km/h (4 Bft)
07.11.2014 09:02 4,3 C 3,9 C 96 % 1004,6 hPa 0,0 l/m 0 min 0 min 72 W/m 29,3 km/h (5 Bft)
07.11.2014 09:04 4,4 C 3,9 C 97 % 1004,6 hPa 0,0 l/m 0 min 0 min 69 W/m 33,5 km/h (5 Bft)
07.11.2014 09:06 4,4 C 4,4 C 97 % 1004,6 hPa 0,0 l/m 0 min 0 min 67 W/m 23,0 km/h (4 Bft)
07.11.2014 09:08 4,5 C 4,4 C 97 % 1004,5 hPa 0,0 l/m 0 min 0 min 64 W/m 23,0 km/h (4 Bft)
07.11.2014 09:10 4,6 C 4,4 C 96 % 1004,5 hPa 0,0 l/m 0 min 0 min 63 W/m 35,6 km/h (5 Bft)
07.11.2014 09:12 4,6 C 4,4 C 96 % 1004,5 hPa 0,0 l/m 0 min 0 min 62 W/m 27,2 km/h (4 Bft)
07.11.2014 09:14 4,7 C 4,4 C 96 % 1004,4 hPa 0,0 l/m 0 min 0 min 62 W/m 29,3 km/h (5 Bft)
07.11.2014 09:16 4,7 C 4,4 C 96 % 1004,5 hPa 0,0 l/m 0 min 0 min 60 W/m 29,3 km/h (5 Bft)
07.11.2014 09:18 4,7 C 4,4 C 96 % 1004,5 hPa 0,0 l/m 0 min 0 min 61 W/m 31,4 km/h (5 Bft)
07.11.2014 09:20 4,8 C 4,4 C 96 % 1004,5 hPa 0,0 l/m 0 min 0 min 63 W/m 31,4 km/h (5 Bft)
07.11.2014 09:22 4,8 C 4,4 C 96 % 1004,4 hPa 0,0 l/m 0 min 0 min 63 W/m 37,7 km/h (5 Bft)
07.11.2014 09:24 4,9 C 4,4 C 96 % 1004,4 hPa 0,0 l/m 0 min 0 min 64 W/m 33,5 km/h (5 Bft)
07.11.2014 09:26 4,9 C 4,4 C 96 % 1004,4 hPa 0,0 l/m 0 min 0 min 65 W/m 27,2 km/h (4 Bft)
07.11.2014 09:28 4,9 C 4,4 C 96 % 1004,4 hPa 0,0 l/m 0 min 0 min 67 W/m 35,6 km/h (5 Bft)
07.11.2014 09:30 5,0 C 4,4 C 96 % 1004,4 hPa 0,0 l/m 0 min 0 min 71 W/m 35,6 km/h (5 Bft)
07.11.2014 09:32 5,1 C 4,4 C 96 % 1004,4 hPa 0,0 l/m 0 min 0 min 73 W/m 25,1 km/h (4 Bft)
07.11.2014 09:34 5,1 C 5,0 C 96 % 1004,4 hPa 0,0 l/m 0 min 0 min 76 W/m 29,3 km/h (5 Bft)
07.11.2014 09:36 5,1 C 5,0 C 96 % 1004,3 hPa 0,0 l/m 0 min 0 min 77 W/m 25,1 km/h (4 Bft)
07.11.2014 09:38 5,2 C 5,0 C 96 % 1004,3 hPa 0,0 l/m 0 min 0 min 80 W/m 29,3 km/h (5 Bft)
07.11.2014 09:40 5,2 C 5,0 C 96 % 1004,3 hPa 0,0 l/m 0 min 0 min 83 W/m 29,3 km/h (5 Bft)
07.11.2014 09:42 5,2 C 5,0 C 96 % 1004,3 hPa 0,0 l/m 0 min 0 min 84 W/m 29,3 km/h (5 Bft)
07.11.2014 09:44 5,3 C 5,0 C 96 % 1004,2 hPa 0,0 l/m 0 min 0 min 85 W/m 31,4 km/h (5 Bft)
07.11.2014 09:46 5,3 C 5,0 C 96 % 1004,1 hPa 0,0 l/m 0 min 0 min 86 W/m 25,1 km/h (4 Bft)
07.11.2014 09:48 5,4 C 5,0 C 96 % 1004,2 hPa 0,0 l/m 0 min 0 min 87 W/m 33,5 km/h (5 Bft)
07.11.2014 09:50 5,4 C 5,0 C 95 % 1004,1 hPa 0,0 l/m 0 min 0 min 89 W/m 31,4 km/h (5 Bft)
07.11.2014 09:52 5,4 C 5,0 C 95 % 1004,1 hPa 0,0 l/m 0 min 0 min 90 W/m 27,2 km/h (4 Bft)
07.11.2014 09:54 5,4 C 5,0 C 95 % 1004,0 hPa 0,0 l/m 0 min 0 min 91 W/m 39,7 km/h (6 Bft)
07.11.2014 09:56 5,5 C 5,0 C 95 % 1004,0 hPa 0,0 l/m 0 min 0 min 95 W/m 27,2 km/h (4 Bft)
07.11.2014 09:58 5,6 C 5,0 C 95 % 1003,9 hPa 0,0 l/m 0 min 0 min 98 W/m 33,5 km/h (5 Bft)
07.11.2014 10:00 5,6 C 5,0 C 95 % 1003,9 hPa 0,0 l/m 0 min 0 min 103 W/m 31,4 km/h (5 Bft)
07.11.2014 10:02 5,6 C 5,0 C 95 % 1003,9 hPa 0,0 l/m 0 min 0 min 107 W/m 31,4 km/h (5 Bft)
07.11.2014 10:04 5,7 C 5,6 C 95 % 1003,8 hPa 0,0 l/m 0 min 0 min 112 W/m 20,9 km/h (4 Bft)
07.11.2014 10:06 5,7 C 5,6 C 95 % 1003,9 hPa 0,0 l/m 0 min 0 min 113 W/m 25,1 km/h (4 Bft)
07.11.2014 10:08 5,7 C 5,6 C 95 % 1003,9 hPa 0,0 l/m 0 min 0 min 114 W/m 27,2 km/h (4 Bft)
07.11.2014 10:10 5,8 C 5,6 C 94 % 1003,8 hPa 0,0 l/m 0 min 0 min 115 W/m 27,2 km/h (4 Bft)
07.11.2014 10:12 5,8 C 5,6 C 94 % 1003,8 hPa 0,0 l/m 0 min 0 min 116 W/m 35,6 km/h (5 Bft)
07.11.2014 10:14 5,8 C 5,6 C 94 % 1003,7 hPa 0,0 l/m 0 min 0 min 118 W/m 33,5 km/h (5 Bft)
07.11.2014 10:16 5,9 C 5,6 C 94 % 1003,7 hPa 0,0 l/m 0 min 0 min 118 W/m 23,0 km/h (4 Bft)
07.11.2014 10:18 5,9 C 5,6 C 94 % 1003,8 hPa 0,0 l/m 0 min 0 min 118 W/m 33,5 km/h (5 Bft)
07.11.2014 10:20 5,9 C 5,6 C 94 % 1003,7 hPa 0,0 l/m 0 min 0 min 115 W/m 29,3 km/h (5 Bft)
07.11.2014 10:22 6,0 C 5,6 C 94 % 1003,7 hPa 0,0 l/m 0 min 0 min 114 W/m 25,1 km/h (4 Bft)
07.11.2014 10:24 6,0 C 5,6 C 93 % 1003,7 hPa 0,0 l/m 0 min 0 min 113 W/m 29,3 km/h (5 Bft)
07.11.2014 10:26 6,1 C 5,6 C 93 % 1003,7 hPa 0,0 l/m 0 min 0 min 116 W/m 23,0 km/h (4 Bft)
07.11.2014 10:28 6,1 C 5,6 C 93 % 1003,7 hPa 0,0 l/m 0 min 0 min 117 W/m 27,2 km/h (4 Bft)
07.11.2014 10:30 6,1 C 5,6 C 93 % 1003,7 hPa 0,0 l/m 0 min 0 min 118 W/m 37,7 km/h (5 Bft)
07.11.2014 10:32 6,2 C 5,6 C 93 % 1003,6 hPa 0,0 l/m 0 min 0 min 118 W/m 25,1 km/h (4 Bft)
07.11.2014 10:34 6,2 C 6,1 C 93 % 1003,6 hPa 0,0 l/m 0 min 0 min 121 W/m 23,0 km/h (4 Bft)
07.11.2014 10:36 6,2 C 6,1 C 93 % 1003,6 hPa 0,0 l/m 0 min 0 min 123 W/m 27,2 km/h (4 Bft)
07.11.2014 10:38 6,2 C 6,1 C 93 % 1003,6 hPa 0,0 l/m 0 min 0 min 126 W/m 33,5 km/h (5 Bft)
07.11.2014 10:40 6,3 C 6,1 C 92 % 1003,6 hPa 0,0 l/m 0 min 0 min 128 W/m 27,2 km/h (4 Bft)
07.11.2014 10:42 6,3 C 6,1 C 92 % 1003,6 hPa 0,0 l/m 0 min 0 min 130 W/m 25,1 km/h (4 Bft)
07.11.2014 10:44 6,3 C 6,1 C 92 % 1003,6 hPa 0,0 l/m 0 min 0 min 133 W/m 39,7 km/h (6 Bft)
07.11.2014 10:46 6,4 C 6,1 C 92 % 1003,6 hPa 0,0 l/m 0 min 0 min 134 W/m 31,4 km/h (5 Bft)
07.11.2014 10:48 6,4 C 6,1 C 92 % 1003,6 hPa 0,0 l/m 0 min 0 min 134 W/m 33,5 km/h (5 Bft)
07.11.2014 10:50 6,4 C 6,1 C 92 % 1003,6 hPa 0,0 l/m 0 min 0 min 135 W/m 25,1 km/h (4 Bft)
07.11.2014 10:52 6,4 C 6,1 C 91 % 1003,5 hPa 0,0 l/m 0 min 0 min 136 W/m 27,2 km/h (4 Bft)
07.11.2014 10:54 6,5 C 6,1 C 91 % 1003,5 hPa 0,0 l/m 0 min 0 min 139 W/m 29,3 km/h (5 Bft)
07.11.2014 10:56 6,5 C 6,1 C 91 % 1003,5 hPa 0,0 l/m 0 min 0 min 140 W/m 27,2 km/h (4 Bft)
07.11.2014 10:58 6,6 C 6,1 C 91 % 1003,5 hPa 0,0 l/m 0 min 0 min 139 W/m 33,5 km/h (5 Bft)
07.11.2014 11:00 6,6 C 6,1 C 91 % 1003,4 hPa 0,0 l/m 0 min 0 min 138 W/m 33,5 km/h (5 Bft)
07.11.2014 11:02 6,6 C 6,1 C 91 % 1003,4 hPa 0,0 l/m 0 min 0 min 135 W/m 31,4 km/h (5 Bft)
07.11.2014 11:04 6,6 C 6,1 C 90 % 1003,4 hPa 0,0 l/m 0 min 0 min 134 W/m 33,5 km/h (5 Bft)
07.11.2014 11:06 6,7 C 6,1 C 90 % 1003,3 hPa 0,0 l/m 0 min 0 min 132 W/m 33,5 km/h (5 Bft)
07.11.2014 11:08 6,7 C 6,1 C 90 % 1003,3 hPa 0,0 l/m 0 min 0 min 128 W/m 25,1 km/h (4 Bft)
07.11.2014 11:10 6,7 C 6,1 C 90 % 1003,3 hPa 0,0 l/m 0 min 0 min 126 W/m 31,4 km/h (5 Bft)
07.11.2014 11:12 6,7 C 6,1 C 90 % 1003,4 hPa 0,0 l/m 0 min 0 min 125 W/m 27,2 km/h (4 Bft)
07.11.2014 11:14 6,7 C 6,7 C 90 % 1003,4 hPa 0,0 l/m 0 min 0 min 127 W/m 25,1 km/h (4 Bft)
07.11.2014 11:16 6,8 C 6,1 C 90 % 1003,3 hPa 0,0 l/m 0 min 0 min 127 W/m 23,0 km/h (4 Bft)
07.11.2014 11:18 6,8 C 6,1 C 89 % 1003,3 hPa 0,0 l/m 0 min 0 min 128 W/m 39,7 km/h (6 Bft)
07.11.2014 11:20 6,8 C 6,7 C 89 % 1003,3 hPa 0,0 l/m 0 min 0 min 129 W/m 35,6 km/h (5 Bft)
07.11.2014 11:22 6,8 C 6,7 C 89 % 1003,3 hPa 0,0 l/m 0 min 0 min 130 W/m 37,7 km/h (5 Bft)
07.11.2014 11:24 6,8 C 6,7 C 89 % 1003,4 hPa 0,0 l/m 0 min 0 min 128 W/m 31,4 km/h (5 Bft)
07.11.2014 11:26 6,9 C 6,7 C 89 % 1003,3 hPa 0,0 l/m 0 min 0 min 125 W/m 27,2 km/h (4 Bft)
07.11.2014 11:28 6,9 C 6,7 C 89 % 1003,3 hPa 0,0 l/m 0 min 0 min 125 W/m 35,6 km/h (5 Bft)
07.11.2014 11:30 6,9 C 6,7 C 89 % 1003,3 hPa 0,0 l/m 0 min 0 min 125 W/m 31,4 km/h (5 Bft)
07.11.2014 11:32 6,9 C 6,7 C 89 % 1003,2 hPa 0,0 l/m 0 min 0 min 125 W/m 33,5 km/h (5 Bft)
07.11.2014 11:34 6,9 C 6,7 C 88 % 1003,3 hPa 0,0 l/m 0 min 0 min 125 W/m 35,6 km/h (5 Bft)
07.11.2014 11:36 6,9 C 6,7 C 88 % 1003,3 hPa 0,0 l/m 0 min 0 min 127 W/m 31,4 km/h (5 Bft)
07.11.2014 11:38 7,0 C 6,7 C 88 % 1003,3 hPa 0,0 l/m 0 min 0 min 128 W/m 41,8 km/h (6 Bft)
07.11.2014 11:40 7,0 C 6,7 C 88 % 1003,3 hPa 0,0 l/m 0 min 0 min 130 W/m 31,4 km/h (5 Bft)
07.11.2014 11:42 7,1 C 6,7 C 88 % 1003,3 hPa 0,0 l/m 0 min 0 min 132 W/m 31,4 km/h (5 Bft)
07.11.2014 11:44 7,1 C 6,7 C 88 % 1003,3 hPa 0,0 l/m 0 min 0 min 134 W/m 37,7 km/h (5 Bft)
07.11.2014 11:46 7,1 C 6,7 C 88 % 1003,3 hPa 0,0 l/m 0 min 0 min 135 W/m 29,3 km/h (5 Bft)
07.11.2014 11:48 7,1 C 6,7 C 88 % 1003,3 hPa 0,0 l/m 0 min 0 min 135 W/m 37,7 km/h (5 Bft)
07.11.2014 11:50 7,1 C 6,7 C 88 % 1003,3 hPa 0,0 l/m 0 min 0 min 138 W/m 35,6 km/h (5 Bft)
07.11.2014 11:52 7,2 C 6,7 C 88 % 1003,2 hPa 0,0 l/m 0 min 0 min 140 W/m 25,1 km/h (4 Bft)
07.11.2014 11:54 7,2 C 6,7 C 88 % 1003,2 hPa 0,0 l/m 0 min 0 min 143 W/m 35,6 km/h (5 Bft)
07.11.2014 11:56 7,2 C 6,7 C 87 % 1003,2 hPa 0,0 l/m 0 min 0 min 145 W/m 37,7 km/h (5 Bft)
07.11.2014 11:58 7,2 C 6,7 C 87 % 1003,3 hPa 0,0 l/m 0 min 0 min 140 W/m 41,8 km/h (6 Bft)
07.11.2014 12:00 7,2 C 6,7 C 87 % 1003,2 hPa 0,0 l/m 0 min 0 min 135 W/m 29,3 km/h (5 Bft)
07.11.2014 12:02 7,3 C 6,7 C 87 % 1003,1 hPa 0,0 l/m 0 min 0 min 132 W/m 37,7 km/h (5 Bft)
07.11.2014 12:05 7,3 C 6,7 C 87 % 1003,1 hPa 0,0 l/m 0 min 0 min 128 W/m 46,0 km/h (6 Bft)
07.11.2014 12:08 7,3 C 6,7 C 87 % 1003,0 hPa 0,0 l/m 0 min 0 min 130 W/m 46,0 km/h (6 Bft)
07.11.2014 12:10 7,3 C 6,7 C 87 % 1003,0 hPa 0,0 l/m 0 min 0 min 130 W/m 27,2 km/h (4 Bft)
07.11.2014 12:12 7,3 C 6,7 C 87 % 1003,0 hPa 0,0 l/m 0 min 0 min 130 W/m 33,5 km/h (5 Bft)
07.11.2014 12:14 7,3 C 6,7 C 87 % 1002,9 hPa 0,0 l/m 0 min 0 min 130 W/m 41,8 km/h (6 Bft)
07.11.2014 12:16 7,3 C 6,7 C 87 % 1002,9 hPa 0,0 l/m 0 min 0 min 132 W/m 50,2 km/h (7 Bft)
07.11.2014 12:18 7,2 C 6,7 C 86 % 1002,9 hPa 0,0 l/m 0 min 0 min 132 W/m 37,7 km/h (5 Bft)
07.11.2014 12:20 7,2 C 6,7 C 86 % 1002,8 hPa 0,0 l/m 0 min 0 min 132 W/m 31,4 km/h (5 Bft)
07.11.2014 12:22 7,2 C 6,7 C 86 % 1002,7 hPa 0,0 l/m 0 min 0 min 133 W/m 46,0 km/h (6 Bft)
07.11.2014 12:24 7,2 C 6,7 C 86 % 1002,7 hPa 0,0 l/m 0 min 0 min 134 W/m 46,0 km/h (6 Bft)
07.11.2014 12:26 7,2 C 6,7 C 86 % 1002,6 hPa 0,0 l/m 0 min 0 min 138 W/m 39,7 km/h (6 Bft)
07.11.2014 12:28 7,2 C 6,7 C 86 % 1002,5 hPa 0,0 l/m 0 min 0 min 144 W/m 29,3 km/h (5 Bft)
07.11.2014 12:30 7,2 C 6,7 C 86 % 1002,6 hPa 0,0 l/m 0 min 0 min 152 W/m 33,5 km/h (5 Bft)
07.11.2014 12:32 7,2 C 6,7 C 87 % 1002,6 hPa 0,0 l/m 0 min 0 min 158 W/m 27,2 km/h (4 Bft)
07.11.2014 12:34 7,2 C 6,7 C 87 % 1002,5 hPa 0,0 l/m 0 min 0 min 186 W/m 31,4 km/h (5 Bft)
07.11.2014 12:36 7,2 C 7,2 C 87 % 1002,4 hPa 0,0 l/m 0 min 0 min 183 W/m 35,6 km/h (5 Bft)
07.11.2014 12:38 7,3 C 7,2 C 87 % 1002,4 hPa 0,0 l/m 0 min 0 min 119 W/m 25,1 km/h (4 Bft)
07.11.2014 12:40 7,3 C 6,7 C 87 % 1002,3 hPa 0,0 l/m 0 min 0 min 104 W/m 31,4 km/h (5 Bft)
07.11.2014 12:42 7,3 C 6,7 C 87 % 1002,3 hPa 0,0 l/m 0 min 0 min 123 W/m 35,6 km/h (5 Bft)
07.11.2014 12:44 7,3 C 7,2 C 87 % 1002,3 hPa 0,0 l/m 0 min 0 min 124 W/m 33,5 km/h (5 Bft)
07.11.2014 12:46 7,3 C 6,7 C 87 % 1002,3 hPa 0,0 l/m 0 min 0 min 130 W/m 33,5 km/h (5 Bft)
07.11.2014 12:48 7,3 C 7,2 C 86 % 1002,3 hPa 0,0 l/m 0 min 0 min 132 W/m 25,1 km/h (4 Bft)
07.11.2014 12:50 7,3 C 7,2 C 86 % 1002,3 hPa 0,0 l/m 0 min 0 min 142 W/m 33,5 km/h (5 Bft)
07.11.2014 12:52 7,4 C 7,2 C 86 % 1002,3 hPa 0,0 l/m 0 min 0 min 154 W/m 33,5 km/h (5 Bft)
07.11.2014 12:54 7,4 C 7,2 C 86 % 1002,3 hPa 0,0 l/m 0 min 0 min 165 W/m 27,2 km/h (4 Bft)
07.11.2014 12:56 7,4 C 7,2 C 86 % 1002,3 hPa 0,0 l/m 0 min 0 min 168 W/m 27,2 km/h (4 Bft)
07.11.2014 12:58 7,4 C 7,2 C 86 % 1002,3 hPa 0,0 l/m 0 min 0 min 162 W/m 33,5 km/h (5 Bft)
07.11.2014 13:00 7,5 C 7,2 C 86 % 1002,3 hPa 0,0 l/m 0 min 0 min 143 W/m 35,6 km/h (5 Bft)
07.11.2014 13:02 7,5 C 7,2 C 86 % 1002,3 hPa 0,0 l/m 0 min 0 min 128 W/m 39,7 km/h (6 Bft)
07.11.2014 13:04 7,5 C 7,2 C 86 % 1002,3 hPa 0,0 l/m 0 min 0 min 107 W/m 31,4 km/h (5 Bft)
07.11.2014 13:06 7,6 C 7,2 C 86 % 1002,3 hPa 0,0 l/m 0 min 0 min 111 W/m 31,4 km/h (5 Bft)
07.11.2014 13:08 7,6 C 7,2 C 86 % 1002,3 hPa 0,0 l/m 0 min 0 min 116 W/m 37,7 km/h (5 Bft)
07.11.2014 13:10 7,6 C 7,2 C 86 % 1002,3 hPa 0,0 l/m 0 min 0 min 108 W/m 29,3 km/h (5 Bft)
07.11.2014 13:12 7,6 C 7,2 C 86 % 1002,3 hPa 0,0 l/m 0 min 0 min 96 W/m 31,4 km/h (5 Bft)
07.11.2014 13:14 7,6 C 6,7 C 86 % 1002,2 hPa 0,0 l/m 0 min 0 min 100 W/m 46,0 km/h (6 Bft)
07.11.2014 13:16 7,6 C 7,2 C 86 % 1002,2 hPa 0,0 l/m 0 min 0 min 113 W/m 54,4 km/h (7 Bft)
07.11.2014 13:18 7,6 C 7,2 C 86 % 1002,2 hPa 0,0 l/m 0 min 0 min 119 W/m 31,4 km/h (5 Bft)
07.11.2014 13:20 7,6 C 7,2 C 86 % 1002,2 hPa 0,0 l/m 0 min 0 min 124 W/m 27,2 km/h (4 Bft)
07.11.2014 13:22 7,6 C 7,2 C 86 % 1002,1 hPa 0,0 l/m 0 min 0 min 125 W/m 33,5 km/h (5 Bft)
07.11.2014 13:24 7,6 C 7,2 C 86 % 1002,2 hPa 0,0 l/m 0 min 0 min 109 W/m 35,6 km/h (5 Bft)
07.11.2014 13:26 7,6 C 7,2 C 86 % 1002,0 hPa 0,0 l/m 0 min 0 min 104 W/m 31,4 km/h (5 Bft)
07.11.2014 13:28 7,7 C 7,2 C 86 % 1002,0 hPa 0,0 l/m 0 min 0 min 111 W/m 39,7 km/h (6 Bft)
07.11.2014 13:30 7,7 C 7,2 C 86 % 1002,1 hPa 0,0 l/m 0 min 0 min 114 W/m 39,7 km/h (6 Bft)
07.11.2014 13:32 7,7 C 7,2 C 86 % 1001,9 hPa 0,0 l/m 0 min 0 min 119 W/m 33,5 km/h (5 Bft)
07.11.2014 13:34 7,7 C 7,2 C 86 % 1001,9 hPa 0,0 l/m 0 min 0 min 115 W/m 31,4 km/h (5 Bft)
07.11.2014 13:36 7,7 C 7,2 C 86 % 1002,0 hPa 0,0 l/m 0 min 0 min 110 W/m 31,4 km/h (5 Bft)
07.11.2014 13:38 7,7 C 6,7 C 86 % 1002,0 hPa 0,0 l/m 0 min 0 min 101 W/m 25,1 km/h (4 Bft)
07.11.2014 13:40 7,7 C 6,7 C 86 % 1002,1 hPa 0,0 l/m 0 min 2 min 93 W/m 29,3 km/h (5 Bft)
07.11.2014 13:42 7,7 C 6,7 C 86 % 1002,0 hPa 0,0 l/m 0 min 0 min 88 W/m 31,4 km/h (5 Bft)
07.11.2014 13:44 7,7 C 6,7 C 86 % 1002,0 hPa 0,0 l/m 0 min 0 min 82 W/m 29,3 km/h (5 Bft)
07.11.2014 13:46 7,7 C 6,7 C 87 % 1002,1 hPa 0,0 l/m 0 min 2 min 71 W/m 27,2 km/h (4 Bft)
07.11.2014 13:48 7,7 C 6,1 C 87 % 1002,0 hPa 0,0 l/m 0 min 0 min 65 W/m 33,5 km/h (5 Bft)
07.11.2014 13:50 7,7 C 6,1 C 87 % 1001,9 hPa 0,0 l/m 0 min 0 min 64 W/m 23,0 km/h (4 Bft)
07.11.2014 13:52 7,7 C 6,1 C 87 % 1002,0 hPa 0,0 l/m 0 min 0 min 64 W/m 37,7 km/h (5 Bft)
07.11.2014 13:54 7,7 C 6,1 C 88 % 1002,1 hPa 0,0 l/m 0 min 0 min 59 W/m 31,4 km/h (5 Bft)
07.11.2014 13:56 7,7 C 6,1 C 88 % 1002,2 hPa 0,0 l/m 0 min 0 min 54 W/m 20,9 km/h (4 Bft)
07.11.2014 13:58 7,7 C 6,1 C 88 % 1002,2 hPa 0,0 l/m 0 min 0 min 51 W/m 27,2 km/h (4 Bft)
07.11.2014 14:00 7,7 C 6,1 C 88 % 1002,2 hPa 0,0 l/m 0 min 0 min 51 W/m 29,3 km/h (5 Bft)
07.11.2014 14:02 7,7 C 6,1 C 88 % 1002,2 hPa 0,0 l/m 0 min 0 min 54 W/m 37,7 km/h (5 Bft)
07.11.2014 14:04 7,7 C 6,1 C 88 % 1002,2 hPa 0,0 l/m 0 min 0 min 56 W/m 31,4 km/h (5 Bft)
07.11.2014 14:06 7,6 C 6,1 C 88 % 1002,1 hPa 0,0 l/m 0 min 0 min 63 W/m 33,5 km/h (5 Bft)
07.11.2014 14:08 7,6 C 6,1 C 88 % 1001,9 hPa 0,0 l/m 0 min 0 min 79 W/m 31,4 km/h (5 Bft)
07.11.2014 14:10 7,6 C 6,1 C 88 % 1001,9 hPa 0,0 l/m 0 min 0 min 90 W/m 25,1 km/h (4 Bft)
07.11.2014 14:12 7,6 C 6,1 C 89 % 1002,0 hPa 0,0 l/m 0 min 0 min 92 W/m 31,4 km/h (5 Bft)
07.11.2014 14:14 7,6 C 6,1 C 89 % 1002,0 hPa 0,0 l/m 0 min 0 min 91 W/m 29,3 km/h (5 Bft)
07.11.2014 14:16 7,6 C 6,1 C 89 % 1002,2 hPa 0,0 l/m 0 min 0 min 86 W/m 33,5 km/h (5 Bft)
07.11.2014 14:18 7,6 C 6,1 C 89 % 1002,2 hPa 0,0 l/m 0 min 0 min 83 W/m 18,8 km/h (3 Bft)
07.11.2014 14:20 7,7 C 6,7 C 89 % 1002,2 hPa 0,0 l/m 0 min 0 min 83 W/m 25,1 km/h (4 Bft)
07.11.2014 14:22 7,7 C 6,7 C 89 % 1002,2 hPa 0,0 l/m 0 min 0 min 76 W/m 27,2 km/h (4 Bft)
07.11.2014 14:24 7,7 C 6,7 C 89 % 1002,3 hPa 0,0 l/m 0 min 0 min 68 W/m 29,3 km/h (5 Bft)
07.11.2014 14:26 7,7 C 6,7 C 89 % 1002,3 hPa 0,0 l/m 0 min 0 min 56 W/m 29,3 km/h (5 Bft)
07.11.2014 14:28 7,7 C 6,7 C 89 % 1002,3 hPa 0,0 l/m 0 min 0 min 47 W/m 20,9 km/h (4 Bft)
07.11.2014 14:30 7,7 C 6,7 C 89 % 1002,3 hPa 0,0 l/m 0 min 0 min 50 W/m 27,2 km/h (4 Bft)
07.11.2014 14:32 7,7 C 6,7 C 89 % 1002,2 hPa 0,0 l/m 0 min 0 min 53 W/m 20,9 km/h (4 Bft)
07.11.2014 14:34 7,7 C 6,7 C 89 % 1002,3 hPa 0,0 l/m 0 min 0 min 54 W/m 18,8 km/h (3 Bft)
07.11.2014 14:36 7,7 C 6,7 C 89 % 1002,3 hPa 0,0 l/m 0 min 0 min 58 W/m 18,8 km/h (3 Bft)
07.11.2014 14:38 7,7 C 6,7 C 89 % 1002,4 hPa 0,0 l/m 0 min 0 min 60 W/m 33,5 km/h (5 Bft)
07.11.2014 14:40 7,7 C 6,7 C 89 % 1002,3 hPa 0,0 l/m 0 min 0 min 62 W/m 31,4 km/h (5 Bft)
07.11.2014 14:42 7,8 C 6,7 C 89 % 1002,3 hPa 0,0 l/m 0 min 0 min 63 W/m 27,2 km/h (4 Bft)
07.11.2014 14:44 7,8 C 6,7 C 89 % 1002,4 hPa 0,0 l/m 0 min 0 min 61 W/m 29,3 km/h (5 Bft)
07.11.2014 14:46 7,8 C 7,2 C 89 % 1002,4 hPa 0,0 l/m 0 min 0 min 52 W/m 20,9 km/h (4 Bft)
07.11.2014 14:48 7,8 C 7,2 C 89 % 1002,4 hPa 0,0 l/m 0 min 0 min 54 W/m 23,0 km/h (4 Bft)
07.11.2014 14:50 7,8 C 7,2 C 89 % 1002,6 hPa 0,0 l/m 0 min 0 min 48 W/m 23,0 km/h (4 Bft)
07.11.2014 14:52 7,8 C 7,2 C 89 % 1002,5 hPa 0,0 l/m 0 min 0 min 50 W/m 23,0 km/h (4 Bft)
07.11.2014 14:54 7,8 C 7,2 C 89 % 1002,4 hPa 0,0 l/m 0 min 0 min 53 W/m 31,4 km/h (5 Bft)
07.11.2014 14:56 7,8 C 7,2 C 89 % 1002,5 hPa 0,0 l/m 0 min 0 min 57 W/m 18,8 km/h (3 Bft)
07.11.2014 14:58 7,9 C 7,2 C 89 % 1002,5 hPa 0,0 l/m 0 min 0 min 69 W/m 20,9 km/h (4 Bft)
07.11.2014 15:00 7,9 C 7,2 C 89 % 1002,5 hPa 0,0 l/m 0 min 0 min 89 W/m 23,0 km/h (4 Bft)
07.11.2014 15:02 7,9 C 7,2 C 89 % 1002,5 hPa 0,0 l/m 0 min 0 min 97 W/m 23,0 km/h (4 Bft)
07.11.2014 15:04 7,9 C 7,8 C 88 % 1002,5 hPa 0,0 l/m 0 min 0 min 85 W/m 25,1 km/h (4 Bft)
07.11.2014 15:06 7,9 C 7,8 C 89 % 1002,6 hPa 0,0 l/m 0 min 0 min 68 W/m 25,1 km/h (4 Bft)
07.11.2014 15:08 8,0 C 7,8 C 88 % 1002,6 hPa 0,0 l/m 0 min 0 min 65 W/m 23,0 km/h (4 Bft)
07.11.2014 15:10 8,1 C 7,8 C 88 % 1002,6 hPa 0,0 l/m 0 min 0 min 59 W/m 39,7 km/h (6 Bft)
07.11.2014 15:12 8,1 C 7,8 C 88 % 1002,6 hPa 0,0 l/m 0 min 0 min 36 W/m 29,3 km/h (5 Bft)
07.11.2014 15:14 8,1 C 7,8 C 87 % 1002,5 hPa 0,0 l/m 0 min 0 min 37 W/m 31,4 km/h (5 Bft)
07.11.2014 15:16 8,2 C 7,8 C 87 % 1002,5 hPa 0,0 l/m 0 min 0 min 35 W/m 27,2 km/h (4 Bft)
07.11.2014 15:18 8,2 C 7,8 C 87 % 1002,7 hPa 0,0 l/m 0 min 0 min 41 W/m 29,3 km/h (5 Bft)
07.11.2014 15:20 8,2 C 7,8 C 86 % 1002,8 hPa 0,0 l/m 0 min 0 min 40 W/m 20,9 km/h (4 Bft)
07.11.2014 15:22 8,3 C 7,8 C 86 % 1002,8 hPa 0,0 l/m 0 min 0 min 29 W/m 16,7 km/h (3 Bft)
07.11.2014 15:24 8,3 C 7,8 C 86 % 1002,9 hPa 0,0 l/m 0 min 0 min 21 W/m 14,6 km/h (3 Bft)
07.11.2014 15:26 8,3 C 7,2 C 86 % 1002,9 hPa 0,0 l/m 0 min 0 min 19 W/m 20,9 km/h (4 Bft)
07.11.2014 15:28 8,4 C 7,8 C 86 % 1002,9 hPa 0,0 l/m 0 min 0 min 28 W/m 18,8 km/h (3 Bft)
07.11.2014 15:30 8,4 C 7,2 C 85 % 1003,0 hPa 0,0 l/m 0 min 0 min 23 W/m 27,2 km/h (4 Bft)
07.11.2014 15:32 8,4 C 7,2 C 85 % 1002,9 hPa 0,0 l/m 0 min 0 min 21 W/m 29,3 km/h (5 Bft)
07.11.2014 15:34 8,4 C 7,2 C 85 % 1003,0 hPa 0,0 l/m 0 min 0 min 30 W/m 33,5 km/h (5 Bft)
07.11.2014 15:36 8,4 C 7,2 C 85 % 1003,1 hPa 0,0 l/m 0 min 0 min 28 W/m 31,4 km/h (5 Bft)
07.11.2014 15:38 8,5 C 7,8 C 85 % 1003,1 hPa 0,0 l/m 0 min 0 min 29 W/m 23,0 km/h (4 Bft)
07.11.2014 15:40 8,5 C 7,8 C 84 % 1003,1 hPa 0,0 l/m 0 min 0 min 27 W/m 25,1 km/h (4 Bft)
07.11.2014 15:42 8,5 C 7,8 C 84 % 1003,0 hPa 0,0 l/m 0 min 0 min 24 W/m 25,1 km/h (4 Bft)
07.11.2014 15:44 8,6 C 7,2 C 84 % 1003,0 hPa 0,0 l/m 0 min 0 min 22 W/m 25,1 km/h (4 Bft)
07.11.2014 15:46 8,6 C 7,2 C 84 % 1003,0 hPa 0,0 l/m 0 min 0 min 18 W/m 33,5 km/h (5 Bft)
07.11.2014 15:48 8,6 C 7,2 C 84 % 1002,9 hPa 0,0 l/m 0 min 0 min 16 W/m 27,2 km/h (4 Bft)
07.11.2014 15:50 8,6 C 7,2 C 84 % 1003,0 hPa 0,0 l/m 0 min 0 min 16 W/m 27,2 km/h (4 Bft)
07.11.2014 15:52 8,6 C 7,2 C 84 % 1003,0 hPa 0,0 l/m 0 min 0 min 17 W/m 27,2 km/h (4 Bft)
07.11.2014 15:54 8,6 C 7,2 C 84 % 1002,9 hPa 0,0 l/m 0 min 0 min 21 W/m 20,9 km/h (4 Bft)
07.11.2014 15:56 8,6 C 7,2 C 84 % 1002,9 hPa 0,0 l/m 0 min 0 min 17 W/m 23,0 km/h (4 Bft)
07.11.2014 15:58 8,7 C 7,2 C 84 % 1002,9 hPa 0,0 l/m 0 min 0 min 16 W/m 25,1 km/h (4 Bft)
07.11.2014 16:00 8,7 C 7,2 C 84 % 1003,0 hPa 0,0 l/m 0 min 0 min 14 W/m 23,0 km/h (4 Bft)
07.11.2014 16:02 8,7 C 7,2 C 84 % 1003,1 hPa 0,0 l/m 0 min 0 min 14 W/m 18,8 km/h (3 Bft)
07.11.2014 16:04 8,7 C 7,2 C 84 % 1003,2 hPa 0,0 l/m 0 min 0 min 15 W/m 27,2 km/h (4 Bft)
07.11.2014 16:06 8,7 C 7,2 C 84 % 1003,2 hPa 0,0 l/m 0 min 0 min 17 W/m 27,2 km/h (4 Bft)
07.11.2014 16:08 8,7 C 7,2 C 84 % 1003,3 hPa 0,0 l/m 0 min 0 min 15 W/m 20,9 km/h (4 Bft)
07.11.2014 16:10 8,7 C 7,2 C 84 % 1003,3 hPa 0,0 l/m 0 min 0 min 14 W/m 14,6 km/h (3 Bft)
07.11.2014 16:12 8,7 C 7,2 C 85 % 1003,2 hPa 0,0 l/m 0 min 0 min 15 W/m 14,6 km/h (3 Bft)
07.11.2014 16:14 8,7 C 7,8 C 85 % 1003,3 hPa 0,0 l/m 0 min 0 min 19 W/m 16,7 km/h (3 Bft)
07.11.2014 16:16 8,7 C 7,8 C 85 % 1003,3 hPa 0,0 l/m 0 min 0 min 19 W/m 18,8 km/h (3 Bft)
07.11.2014 16:18 8,7 C 7,8 C 85 % 1003,3 hPa 0,0 l/m 0 min 0 min 19 W/m 20,9 km/h (4 Bft)
07.11.2014 16:20 8,7 C 7,2 C 85 % 1003,3 hPa 0,0 l/m 0 min 0 min 18 W/m 20,9 km/h (4 Bft)
07.11.2014 16:22 8,7 C 7,8 C 85 % 1003,4 hPa 0,0 l/m 0 min 0 min 15 W/m 25,1 km/h (4 Bft)
07.11.2014 16:24 8,7 C 7,2 C 85 % 1003,4 hPa 0,0 l/m 0 min 0 min 13 W/m 20,9 km/h (4 Bft)
07.11.2014 16:26 8,7 C 7,2 C 85 % 1003,4 hPa 0,0 l/m 0 min 0 min 11 W/m 18,8 km/h (3 Bft)
07.11.2014 16:28 8,7 C 7,2 C 85 % 1003,5 hPa 0,0 l/m 0 min 0 min 10 W/m 25,1 km/h (4 Bft)
07.11.2014 16:30 8,7 C 7,8 C 85 % 1003,4 hPa 0,0 l/m 0 min 0 min 9 W/m 20,9 km/h (4 Bft)
07.11.2014 16:32 8,7 C 7,8 C 85 % 1003,4 hPa 0,0 l/m 0 min 0 min 9 W/m 25,1 km/h (4 Bft)
07.11.2014 16:34 8,7 C 7,8 C 85 % 1003,5 hPa 0,0 l/m 0 min 0 min 9 W/m 23,0 km/h (4 Bft)
07.11.2014 16:36 8,7 C 7,8 C 85 % 1003,4 hPa 0,0 l/m 0 min 0 min 9 W/m 31,4 km/h (5 Bft)
07.11.2014 16:38 8,7 C 7,8 C 85 % 1003,5 hPa 0,0 l/m 0 min 0 min 7 W/m 16,7 km/h (3 Bft)
07.11.2014 16:40 8,7 C 7,8 C 85 % 1003,5 hPa 0,0 l/m 0 min 0 min 7 W/m 23,0 km/h (4 Bft)
07.11.2014 16:42 8,7 C 7,8 C 85 % 1003,5 hPa 0,0 l/m 0 min 0 min 7 W/m 20,9 km/h (4 Bft)
07.11.2014 16:44 8,7 C 7,8 C 85 % 1003,5 hPa 0,0 l/m 0 min 0 min 6 W/m 23,0 km/h (4 Bft)
07.11.2014 16:46 8,7 C 7,8 C 85 % 1003,5 hPa 0,0 l/m 0 min 0 min 5 W/m 23,0 km/h (4 Bft)
07.11.2014 16:48 8,7 C 7,8 C 85 % 1003,5 hPa 0,0 l/m 0 min 0 min 5 W/m 20,9 km/h (4 Bft)
07.11.2014 16:50 8,8 C 7,8 C 85 % 1003,5 hPa 0,0 l/m 0 min 0 min 2 W/m 23,0 km/h (4 Bft)
07.11.2014 16:52 8,8 C 7,8 C 85 % 1003,5 hPa 0,0 l/m 0 min 0 min 0 W/m 27,2 km/h (4 Bft)
07.11.2014 16:54 8,8 C 7,8 C 85 % 1003,5 hPa 0,0 l/m 0 min 0 min 0 W/m 14,6 km/h (3 Bft)
07.11.2014 16:56 8,8 C 7,8 C 85 % 1003,6 hPa 0,0 l/m 0 min 0 min 0 W/m 18,8 km/h (3 Bft)
07.11.2014 16:58 8,8 C 7,8 C 85 % 1003,5 hPa 0,0 l/m 0 min 0 min 0 W/m 18,8 km/h (3 Bft)
07.11.2014 17:00 8,8 C 7,8 C 85 % 1003,5 hPa 0,0 l/m 0 min 0 min 0 W/m 20,9 km/h (4 Bft)
07.11.2014 17:02 8,8 C 7,8 C 86 % 1003,5 hPa 0,0 l/m 0 min 0 min 0 W/m 18,8 km/h (3 Bft)
07.11.2014 17:04 8,8 C 7,8 C 86 % 1003,5 hPa 0,0 l/m 0 min 0 min 0 W/m 25,1 km/h (4 Bft)
07.11.2014 17:06 8,8 C 7,8 C 86 % 1003,5 hPa 0,0 l/m 0 min 0 min 0 W/m 20,9 km/h (4 Bft)
07.11.2014 17:08 8,8 C 7,8 C 86 % 1003,5 hPa 0,0 l/m 0 min 0 min 0 W/m 18,8 km/h (3 Bft)
07.11.2014 17:10 8,8 C 7,8 C 86 % 1003,5 hPa 0,0 l/m 0 min 0 min 0 W/m 18,8 km/h (3 Bft)
07.11.2014 17:12 8,8 C 7,8 C 86 % 1003,5 hPa 0,0 l/m 0 min 0 min 0 W/m 18,8 km/h (3 Bft)
07.11.2014 17:14 8,8 C 7,8 C 86 % 1003,5 hPa 0,0 l/m 0 min 0 min 0 W/m 23,0 km/h (4 Bft)
07.11.2014 17:16 8,9 C 7,8 C 86 % 1003,5 hPa 0,0 l/m 0 min 0 min 0 W/m 23,0 km/h (4 Bft)
07.11.2014 17:18 8,9 C 7,8 C 87 % 1003,5 hPa 0,0 l/m 0 min 0 min 0 W/m 18,8 km/h (3 Bft)
07.11.2014 17:20 8,9 C 7,8 C 87 % 1003,5 hPa 0,0 l/m 0 min 0 min 0 W/m 16,7 km/h (3 Bft)
07.11.2014 17:22 8,9 C 7,8 C 87 % 1003,5 hPa 0,0 l/m 0 min 0 min 0 W/m 20,9 km/h (4 Bft)
07.11.2014 17:24 8,9 C 7,2 C 87 % 1003,6 hPa 0,0 l/m 0 min 0 min 0 W/m 23,0 km/h (4 Bft)
07.11.2014 17:26 8,9 C 7,2 C 87 % 1003,6 hPa 0,0 l/m 0 min 0 min 0 W/m 20,9 km/h (4 Bft)
07.11.2014 17:28 8,9 C 7,2 C 87 % 1003,7 hPa 0,0 l/m 0 min 0 min 0 W/m 20,9 km/h (4 Bft)
07.11.2014 17:30 8,9 C 7,8 C 87 % 1003,7 hPa 0,0 l/m 0 min 0 min 0 W/m 23,0 km/h (4 Bft)
07.11.2014 17:32 8,9 C 7,8 C 87 % 1003,7 hPa 0,0 l/m 0 min 0 min 0 W/m 16,7 km/h (3 Bft)
07.11.2014 17:34 8,9 C 7,8 C 87 % 1003,8 hPa 0,0 l/m 0 min 0 min 0 W/m 18,8 km/h (3 Bft)
07.11.2014 17:36 8,9 C 7,8 C 87 % 1003,8 hPa 0,0 l/m 0 min 0 min 0 W/m 23,0 km/h (4 Bft)
07.11.2014 17:38 8,9 C 7,8 C 87 % 1003,9 hPa 0,0 l/m 0 min 0 min 0 W/m 29,3 km/h (5 Bft)
07.11.2014 17:40 8,9 C 7,2 C 87 % 1003,9 hPa 0,0 l/m 0 min 0 min 0 W/m 33,5 km/h (5 Bft)
07.11.2014 17:42 8,9 C 7,2 C 87 % 1003,9 hPa 0,0 l/m 0 min 0 min 0 W/m 16,7 km/h (3 Bft)
07.11.2014 17:44 8,9 C 7,2 C 87 % 1004,0 hPa 0,0 l/m 0 min 0 min 0 W/m 14,6 km/h (3 Bft)
07.11.2014 17:46 8,9 C 7,2 C 87 % 1004,0 hPa 0,0 l/m 0 min 0 min 0 W/m 16,7 km/h (3 Bft)
07.11.2014 17:48 8,9 C 7,2 C 87 % 1004,0 hPa 0,0 l/m 0 min 0 min 0 W/m 14,6 km/h (3 Bft)
07.11.2014 17:50 8,9 C 7,2 C 87 % 1004,1 hPa 0,0 l/m 0 min 0 min 0 W/m 14,6 km/h (3 Bft)
07.11.2014 17:52 8,9 C 7,2 C 87 % 1004,1 hPa 0,0 l/m 0 min 0 min 0 W/m 12,6 km/h (3 Bft)
07.11.2014 17:54 8,9 C 7,2 C 87 % 1004,2 hPa 0,0 l/m 0 min 0 min 0 W/m 10,5 km/h (2 Bft)
07.11.2014 17:56 8,8 C 6,7 C 87 % 1004,2 hPa 0,0 l/m 0 min 0 min 0 W/m 16,7 km/h (3 Bft)
07.11.2014 17:58 8,8 C 6,7 C 87 % 1004,2 hPa 0,0 l/m 0 min 0 min 0 W/m 16,7 km/h (3 Bft)
07.11.2014 18:00 8,8 C 6,7 C 87 % 1004,2 hPa 0,0 l/m 0 min 0 min 0 W/m 12,6 km/h (3 Bft)
07.11.2014 18:02 8,7 C 6,7 C 87 % 1004,2 hPa 0,0 l/m 0 min 0 min 0 W/m 14,6 km/h (3 Bft)
07.11.2014 18:05 8,7 C 6,7 C 87 % 1004,3 hPa 0,0 l/m 0 min 0 min 0 W/m 14,6 km/h (3 Bft)
07.11.2014 18:08 8,7 C 6,7 C 87 % 1004,3 hPa 0,0 l/m 0 min 0 min 0 W/m 16,7 km/h (3 Bft)
07.11.2014 18:10 8,6 C 6,7 C 87 % 1004,3 hPa 0,0 l/m 0 min 0 min 0 W/m 23,0 km/h (4 Bft)
07.11.2014 18:12 8,6 C 6,7 C 87 % 1004,3 hPa 0,0 l/m 0 min 0 min 0 W/m 16,7 km/h (3 Bft)
07.11.2014 18:14 8,6 C 6,7 C 87 % 1004,3 hPa 0,0 l/m 0 min 0 min 0 W/m 18,8 km/h (3 Bft)
07.11.2014 18:16 8,5 C 6,7 C 87 % 1004,3 hPa 0,0 l/m 0 min 0 min 0 W/m 14,6 km/h (3 Bft)
07.11.2014 18:18 8,4 C 6,7 C 88 % 1004,3 hPa 0,0 l/m 0 min 0 min 0 W/m 18,8 km/h (3 Bft)
07.11.2014 18:20 8,4 C 6,7 C 87 % 1004,4 hPa 0,0 l/m 0 min 0 min 0 W/m 12,6 km/h (3 Bft)
07.11.2014 18:22 8,4 C 6,7 C 88 % 1004,4 hPa 0,0 l/m 0 min 0 min 0 W/m 16,7 km/h (3 Bft)
07.11.2014 18:24 8,4 C 6,7 C 88 % 1004,5 hPa 0,0 l/m 0 min 0 min 0 W/m 16,7 km/h (3 Bft)
07.11.2014 18:26 8,3 C 6,7 C 88 % 1004,6 hPa 0,0 l/m 0 min 0 min 0 W/m 14,6 km/h (3 Bft)
07.11.2014 18:28 8,3 C 6,7 C 88 % 1004,6 hPa 0,0 l/m 0 min 0 min 0 W/m 16,7 km/h (3 Bft)
07.11.2014 18:30 8,3 C 6,7 C 88 % 1004,6 hPa 0,0 l/m 0 min 0 min 0 W/m 18,8 km/h (3 Bft)
07.11.2014 18:32 8,2 C 6,7 C 88 % 1004,6 hPa 0,0 l/m 0 min 0 min 0 W/m 16,7 km/h (3 Bft)
07.11.2014 18:34 8,2 C 6,7 C 88 % 1004,7 hPa 0,0 l/m 0 min 0 min 0 W/m 14,6 km/h (3 Bft)
07.11.2014 18:36 8,2 C 6,7 C 88 % 1004,7 hPa 0,0 l/m 0 min 0 min 0 W/m 18,8 km/h (3 Bft)
07.11.2014 18:38 8,2 C 6,7 C 88 % 1004,7 hPa 0,0 l/m 0 min 0 min 0 W/m 18,8 km/h (3 Bft)
07.11.2014 18:40 8,2 C 6,7 C 88 % 1004,7 hPa 0,0 l/m 0 min 0 min 0 W/m 18,8 km/h (3 Bft)
07.11.2014 18:42 8,2 C 6,7 C 89 % 1004,7 hPa 0,0 l/m 0 min 0 min 0 W/m 18,8 km/h (3 Bft)
07.11.2014 18:44 8,2 C 6,7 C 89 % 1004,7 hPa 0,0 l/m 0 min 0 min 0 W/m 18,8 km/h (3 Bft)
07.11.2014 18:46 8,2 C 6,7 C 89 % 1004,7 hPa 0,0 l/m 0 min 0 min 0 W/m 20,9 km/h (4 Bft)
07.11.2014 18:48 8,2 C 7,2 C 89 % 1004,7 hPa 0,0 l/m 0 min 0 min 0 W/m 25,1 km/h (4 Bft)
07.11.2014 18:50 8,2 C 7,2 C 89 % 1004,7 hPa 0,0 l/m 0 min 0 min 0 W/m 25,1 km/h (4 Bft)
07.11.2014 18:52 8,2 C 7,2 C 89 % 1004,7 hPa 0,0 l/m 0 min 0 min 0 W/m 20,9 km/h (4 Bft)
07.11.2014 18:54 8,2 C 7,2 C 89 % 1004,8 hPa 0,0 l/m 0 min 0 min 0 W/m 14,6 km/h (3 Bft)
07.11.2014 18:56 8,2 C 7,2 C 89 % 1004,8 hPa 0,0 l/m 0 min 0 min 0 W/m 18,8 km/h (3 Bft)
07.11.2014 18:58 8,2 C 7,2 C 89 % 1004,8 hPa 0,0 l/m 0 min 0 min 0 W/m 16,7 km/h (3 Bft)
07.11.2014 19:00 8,3 C 7,2 C 89 % 1004,8 hPa 0,0 l/m 0 min 0 min 0 W/m 16,7 km/h (3 Bft)
07.11.2014 19:02 8,3 C 7,2 C 89 % 1004,8 hPa 0,0 l/m 0 min 0 min 0 W/m 20,9 km/h (4 Bft)
07.11.2014 19:04 8,3 C 7,2 C 89 % 1004,8 hPa 0,0 l/m 0 min 0 min 0 W/m 25,1 km/h (4 Bft)
07.11.2014 19:06 8,3 C 7,2 C 90 % 1004,9 hPa 0,0 l/m 0 min 0 min 0 W/m 12,6 km/h (3 Bft)
07.11.2014 19:08 8,3 C 7,2 C 90 % 1004,9 hPa 0,0 l/m 0 min 0 min 0 W/m 14,6 km/h (3 Bft)
07.11.2014 19:10 8,3 C 7,2 C 90 % 1004,9 hPa 0,0 l/m 0 min 0 min 0 W/m 14,6 km/h (3 Bft)
07.11.2014 19:12 8,3 C 7,2 C 90 % 1005,0 hPa 0,0 l/m 0 min 0 min 0 W/m 14,6 km/h (3 Bft)
07.11.2014 19:14 8,3 C 7,2 C 90 % 1005,0 hPa 0,0 l/m 0 min 0 min 0 W/m 12,6 km/h (3 Bft)
07.11.2014 19:16 8,3 C 7,2 C 90 % 1005,0 hPa 0,0 l/m 0 min 0 min 0 W/m 18,8 km/h (3 Bft)
07.11.2014 19:18 8,3 C 7,2 C 90 % 1005,0 hPa 0,0 l/m 0 min 0 min 0 W/m 16,7 km/h (3 Bft)
07.11.2014 19:20 8,3 C 7,2 C 90 % 1005,0 hPa 0,0 l/m 0 min 0 min 0 W/m 14,6 km/h (3 Bft)
07.11.2014 19:22 8,3 C 6,7 C 90 % 1005,0 hPa 0,0 l/m 0 min 0 min 0 W/m 14,6 km/h (3 Bft)
07.11.2014 19:24 8,3 C 6,7 C 90 % 1005,0 hPa 0,0 l/m 0 min 0 min 0 W/m 12,6 km/h (3 Bft)
07.11.2014 19:26 8,3 C 6,7 C 90 % 1004,9 hPa 0,0 l/m 0 min 0 min 0 W/m 14,6 km/h (3 Bft)
07.11.2014 19:28 8,3 C 6,7 C 90 % 1005,0 hPa 0,0 l/m 0 min 0 min 0 W/m 16,7 km/h (3 Bft)
07.11.2014 19:30 8,3 C 6,7 C 90 % 1005,1 hPa 0,0 l/m 0 min 0 min 0 W/m 14,6 km/h (3 Bft)
07.11.2014 19:32 8,3 C 6,7 C 90 % 1005,1 hPa 0,0 l/m 0 min 0 min 0 W/m 16,7 km/h (3 Bft)
07.11.2014 19:34 8,2 C 6,1 C 90 % 1005,0 hPa 0,0 l/m 0 min 0 min 0 W/m 16,7 km/h (3 Bft)
07.11.2014 19:36 8,2 C 6,1 C 90 % 1005,0 hPa 0,0 l/m 0 min 0 min 0 W/m 10,5 km/h (2 Bft)
07.11.2014 19:38 8,2 C 6,1 C 90 % 1005,1 hPa 0,0 l/m 0 min 0 min 0 W/m 12,6 km/h (3 Bft)
07.11.2014 19:40 8,2 C 6,1 C 90 % 1005,1 hPa 0,0 l/m 0 min 0 min 0 W/m 14,6 km/h (3 Bft)
07.11.2014 19:42 8,2 C 6,1 C 90 % 1005,1 hPa 0,0 l/m 0 min 0 min 0 W/m 16,7 km/h (3 Bft)
07.11.2014 19:44 8,1 C 6,1 C 90 % 1005,1 hPa 0,0 l/m 0 min 0 min 0 W/m 20,9 km/h (4 Bft)
07.11.2014 19:46 8,1 C 6,1 C 90 % 1005,1 hPa 0,0 l/m 0 min 0 min 0 W/m 16,7 km/h (3 Bft)
07.11.2014 19:48 8,1 C 6,1 C 90 % 1005,1 hPa 0,0 l/m 0 min 0 min 0 W/m 12,6 km/h (3 Bft)
07.11.2014 19:50 8,1 C 6,1 C 90 % 1005,1 hPa 0,0 l/m 0 min 0 min 0 W/m 14,6 km/h (3 Bft)
07.11.2014 19:52 8,1 C 6,1 C 90 % 1005,0 hPa 0,0 l/m 0 min 0 min 0 W/m 18,8 km/h (3 Bft)
07.11.2014 19:54 8,0 C 6,1 C 90 % 1005,1 hPa 0,0 l/m 0 min 0 min 0 W/m 16,7 km/h (3 Bft)
07.11.2014 19:56 8,0 C 6,1 C 90 % 1005,0 hPa 0,0 l/m 0 min 0 min 0 W/m 16,7 km/h (3 Bft)
07.11.2014 19:58 7,9 C 6,1 C 90 % 1005,0 hPa 0,0 l/m 0 min 0 min 0 W/m 16,7 km/h (3 Bft)
07.11.2014 20:00 7,9 C 6,1 C 90 % 1005,0 hPa 0,0 l/m 0 min 0 min 0 W/m 16,7 km/h (3 Bft)
07.11.2014 20:02 7,9 C 6,1 C 90 % 1005,1 hPa 0,0 l/m 0 min 0 min 0 W/m 16,7 km/h (3 Bft)
07.11.2014 20:04 7,9 C 6,1 C 90 % 1005,1 hPa 0,0 l/m 0 min 0 min 0 W/m 20,9 km/h (4 Bft)
07.11.2014 20:06 7,9 C 6,1 C 91 % 1005,1 hPa 0,0 l/m 0 min 0 min 0 W/m 18,8 km/h (3 Bft)
07.11.2014 20:08 7,9 C 6,1 C 91 % 1005,1 hPa 0,0 l/m 0 min 0 min 0 W/m 14,6 km/h (3 Bft)
07.11.2014 20:10 7,9 C 6,1 C 91 % 1005,1 hPa 0,0 l/m 0 min 0 min 0 W/m 16,7 km/h (3 Bft)
07.11.2014 20:12 7,8 C 6,1 C 91 % 1005,1 hPa 0,0 l/m 0 min 0 min 0 W/m 20,9 km/h (4 Bft)
07.11.2014 20:14 7,8 C 6,1 C 91 % 1005,1 hPa 0,0 l/m 0 min 0 min 0 W/m 16,7 km/h (3 Bft)
07.11.2014 20:16 7,8 C 6,1 C 91 % 1005,1 hPa 0,0 l/m 0 min 0 min 0 W/m 18,8 km/h (3 Bft)
07.11.2014 20:18 7,8 C 6,1 C 91 % 1005,2 hPa 0,0 l/m 0 min 0 min 0 W/m 14,6 km/h (3 Bft)
07.11.2014 20:20 7,8 C 6,1 C 91 % 1005,2 hPa 0,0 l/m 0 min 0 min 0 W/m 20,9 km/h (4 Bft)
07.11.2014 20:22 7,8 C 6,1 C 91 % 1005,2 hPa 0,0 l/m 0 min 0 min 0 W/m 14,6 km/h (3 Bft)
07.11.2014 20:24 7,7 C 6,1 C 91 % 1005,2 hPa 0,0 l/m 0 min 0 min 0 W/m 18,8 km/h (3 Bft)
07.11.2014 20:26 7,7 C 6,1 C 91 % 1005,2 hPa 0,0 l/m 0 min 0 min 0 W/m 18,8 km/h (3 Bft)
07.11.2014 20:28 7,7 C 6,1 C 91 % 1005,2 hPa 0,0 l/m 0 min 0 min 0 W/m 18,8 km/h (3 Bft)
07.11.2014 20:30 7,7 C 6,1 C 91 % 1005,2 hPa 0,0 l/m 0 min 0 min 0 W/m 12,6 km/h (3 Bft)
07.11.2014 20:32 7,7 C 6,1 C 91 % 1005,3 hPa 0,0 l/m 0 min 0 min 0 W/m 14,6 km/h (3 Bft)
07.11.2014 20:34 7,7 C 5,6 C 91 % 1005,2 hPa 0,0 l/m 0 min 0 min 0 W/m 14,6 km/h (3 Bft)
07.11.2014 20:36 7,6 C 5,6 C 91 % 1005,3 hPa 0,0 l/m 0 min 0 min 0 W/m 10,5 km/h (2 Bft)
07.11.2014 20:38 7,6 C 5,6 C 91 % 1005,3 hPa 0,0 l/m 0 min 0 min 0 W/m 14,6 km/h (3 Bft)
07.11.2014 20:40 7,6 C 5,6 C 92 % 1005,4 hPa 0,0 l/m 0 min 0 min 0 W/m 12,6 km/h (3 Bft)
07.11.2014 20:42 7,6 C 5,6 C 92 % 1005,4 hPa 0,0 l/m 0 min 0 min 0 W/m 12,6 km/h (3 Bft)
07.11.2014 20:44 7,5 C 5,6 C 92 % 1005,4 hPa 0,0 l/m 0 min 0 min 0 W/m 23,0 km/h (4 Bft)
07.11.2014 20:46 7,5 C 5,6 C 92 % 1005,4 hPa 0,0 l/m 0 min 0 min 0 W/m 18,8 km/h (3 Bft)
07.11.2014 20:48 7,5 C 5,6 C 92 % 1005,4 hPa 0,0 l/m 0 min 0 min 0 W/m 12,6 km/h (3 Bft)
07.11.2014 20:50 7,4 C 5,6 C 92 % 1005,5 hPa 0,0 l/m 0 min 0 min 0 W/m 14,6 km/h (3 Bft)
07.11.2014 20:52 7,4 C 5,6 C 92 % 1005,5 hPa 0,0 l/m 0 min 0 min 0 W/m 16,7 km/h (3 Bft)
07.11.2014 20:54 7,4 C 5,6 C 92 % 1005,5 hPa 0,0 l/m 0 min 0 min 0 W/m 14,6 km/h (3 Bft)
07.11.2014 20:56 7,4 C 5,6 C 92 % 1005,5 hPa 0,0 l/m 0 min 0 min 0 W/m 14,6 km/h (3 Bft)
07.11.2014 20:58 7,4 C 5,6 C 92 % 1005,5 hPa 0,0 l/m 0 min 0 min 0 W/m 12,6 km/h (3 Bft)
07.11.2014 21:00 7,4 C 5,6 C 92 % 1005,5 hPa 0,0 l/m 0 min 0 min 0 W/m 12,6 km/h (3 Bft)
07.11.2014 21:02 7,3 C 5,6 C 92 % 1005,5 hPa 0,0 l/m 0 min 0 min 0 W/m 16,7 km/h (3 Bft)
07.11.2014 21:04 7,3 C 5,6 C 92 % 1005,6 hPa 0,0 l/m 0 min 0 min 0 W/m 10,5 km/h (2 Bft)
07.11.2014 21:06 7,3 C 5,6 C 92 % 1005,6 hPa 0,0 l/m 0 min 0 min 0 W/m 14,6 km/h (3 Bft)
07.11.2014 21:08 7,3 C 5,6 C 92 % 1005,7 hPa 0,0 l/m 0 min 0 min 0 W/m 16,7 km/h (3 Bft)
07.11.2014 21:10 7,3 C 5,6 C 92 % 1005,7 hPa 0,0 l/m 0 min 0 min 0 W/m 14,6 km/h (3 Bft)
07.11.2014 21:12 7,3 C 5,6 C 92 % 1005,7 hPa 0,0 l/m 0 min 0 min 0 W/m 20,9 km/h (4 Bft)
07.11.2014 21:14 7,3 C 5,6 C 92 % 1005,7 hPa 0,0 l/m 0 min 0 min 0 W/m 16,7 km/h (3 Bft)
07.11.2014 21:16 7,2 C 5,6 C 92 % 1005,8 hPa 0,0 l/m 0 min 0 min 0 W/m 16,7 km/h (3 Bft)
07.11.2014 21:18 7,2 C 5,6 C 92 % 1005,8 hPa 0,0 l/m 0 min 0 min 0 W/m 16,7 km/h (3 Bft)
07.11.2014 21:20 7,2 C 5,6 C 92 % 1005,8 hPa 0,0 l/m 0 min 0 min 0 W/m 14,6 km/h (3 Bft)
07.11.2014 21:22 7,2 C 5,6 C 92 % 1005,8 hPa 0,0 l/m 0 min 0 min 0 W/m 10,5 km/h (2 Bft)
07.11.2014 21:24 7,2 C 5,6 C 92 % 1005,8 hPa 0,0 l/m 0 min 0 min 0 W/m 12,6 km/h (3 Bft)
07.11.2014 21:26 7,2 C 5,6 C 92 % 1005,9 hPa 0,0 l/m 0 min 0 min 0 W/m 12,6 km/h (3 Bft)
07.11.2014 21:28 7,2 C 5,6 C 92 % 1005,9 hPa 0,0 l/m 0 min 0 min 0 W/m 12,6 km/h (3 Bft)
07.11.2014 21:30 7,2 C 5,6 C 92 % 1005,9 hPa 0,0 l/m 0 min 0 min 0 W/m 10,5 km/h (2 Bft)
07.11.2014 21:32 7,1 C 5,6 C 92 % 1005,9 hPa 0,0 l/m 0 min 0 min 0 W/m 14,6 km/h (3 Bft)
07.11.2014 21:34 7,1 C 5,6 C 92 % 1006,0 hPa 0,0 l/m 0 min 0 min 0 W/m 14,6 km/h (3 Bft)
07.11.2014 21:36 7,1 C 5,6 C 93 % 1006,0 hPa 0,0 l/m 0 min 0 min 0 W/m 14,6 km/h (3 Bft)
07.11.2014 21:38 7,1 C 5,6 C 93 % 1006,0 hPa 0,0 l/m 0 min 0 min 0 W/m 10,5 km/h (2 Bft)
07.11.2014 21:40 7,1 C 5,6 C 93 % 1006,1 hPa 0,0 l/m 0 min 0 min 0 W/m 10,5 km/h (2 Bft)
07.11.2014 21:42 7,1 C 5,6 C 93 % 1006,1 hPa 0,0 l/m 0 min 0 min 0 W/m 12,6 km/h (3 Bft)
07.11.2014 21:44 7,1 C 5,6 C 93 % 1006,1 hPa 0,0 l/m 0 min 0 min 0 W/m 10,5 km/h (2 Bft)
07.11.2014 21:46 7,1 C 5,6 C 93 % 1006,3 hPa 0,0 l/m 0 min 0 min 0 W/m 10,5 km/h (2 Bft)
07.11.2014 21:48 7,0 C 5,6 C 93 % 1006,2 hPa 0,0 l/m 0 min 0 min 0 W/m 14,6 km/h (3 Bft)
07.11.2014 21:50 7,0 C 5,6 C 93 % 1006,2 hPa 0,0 l/m 0 min 0 min 0 W/m 14,6 km/h (3 Bft)
07.11.2014 21:52 7,0 C 5,6 C 93 % 1006,2 hPa 0,0 l/m 0 min 0 min 0 W/m 14,6 km/h (3 Bft)
07.11.2014 21:54 7,0 C 5,6 C 93 % 1006,2 hPa 0,0 l/m 0 min 0 min 0 W/m 10,5 km/h (2 Bft)
07.11.2014 21:56 7,0 C 5,6 C 93 % 1006,3 hPa 0,0 l/m 0 min 0 min 0 W/m 14,6 km/h (3 Bft)
07.11.2014 21:58 6,9 C 5,6 C 93 % 1006,4 hPa 0,0 l/m 0 min 0 min 0 W/m 14,6 km/h (3 Bft)
07.11.2014 22:00 7,0 C 5,6 C 93 % 1006,4 hPa 0,0 l/m 0 min 0 min 0 W/m 14,6 km/h (3 Bft)
07.11.2014 22:02 7,0 C 5,6 C 93 % 1006,5 hPa 0,2 l/m 0 min 2 min 0 W/m 12,6 km/h (3 Bft)
07.11.2014 22:04 7,1 C 5,6 C 93 % 1006,3 hPa 0,0 l/m 0 min 2 min 0 W/m 14,6 km/h (3 Bft)
07.11.2014 22:06 7,1 C 5,6 C 93 % 1006,2 hPa 0,0 l/m 0 min 2 min 0 W/m 12,6 km/h (3 Bft)
07.11.2014 22:08 7,1 C 6,1 C 93 % 1006,2 hPa 0,0 l/m 0 min 2 min 0 W/m 12,6 km/h (3 Bft)
07.11.2014 22:10 7,2 C 6,1 C 93 % 1006,2 hPa 0,0 l/m 0 min 2 min 0 W/m 16,7 km/h (3 Bft)
07.11.2014 22:12 7,2 C 5,6 C 94 % 1006,2 hPa 0,0 l/m 0 min 0 min 0 W/m 12,6 km/h (3 Bft)
07.11.2014 22:14 7,2 C 5,6 C 94 % 1006,2 hPa 0,0 l/m 0 min 0 min 0 W/m 12,6 km/h (3 Bft)
07.11.2014 22:16 7,2 C 5,6 C 94 % 1006,3 hPa 0,0 l/m 0 min 0 min 0 W/m 14,6 km/h (3 Bft)
07.11.2014 22:18 7,3 C 5,6 C 94 % 1006,3 hPa 0,0 l/m 0 min 0 min 0 W/m 14,6 km/h (3 Bft)
07.11.2014 22:20 7,3 C 5,6 C 94 % 1006,3 hPa 0,0 l/m 0 min 0 min 0 W/m 16,7 km/h (3 Bft)
07.11.2014 22:22 7,3 C 5,6 C 94 % 1006,3 hPa 0,0 l/m 0 min 0 min 0 W/m 12,6 km/h (3 Bft)
07.11.2014 22:24 7,3 C 5,6 C 94 % 1006,3 hPa 0,0 l/m 0 min 0 min 0 W/m 12,6 km/h (3 Bft)
07.11.2014 22:26 7,3 C 5,6 C 94 % 1006,3 hPa 0,0 l/m 0 min 0 min 0 W/m 12,6 km/h (3 Bft)
07.11.2014 22:28 7,3 C 5,6 C 94 % 1006,3 hPa 0,0 l/m 0 min 0 min 0 W/m 14,6 km/h (3 Bft)
07.11.2014 22:30 7,3 C 5,6 C 94 % 1006,3 hPa 0,0 l/m 0 min 0 min 0 W/m 10,5 km/h (2 Bft)
07.11.2014 22:32 7,3 C 5,6 C 94 % 1006,3 hPa 0,0 l/m 0 min 0 min 0 W/m 10,5 km/h (2 Bft)
07.11.2014 22:34 7,3 C 5,6 C 94 % 1006,2 hPa 0,0 l/m 0 min 0 min 0 W/m 10,5 km/h (2 Bft)
07.11.2014 22:36 7,3 C 5,6 C 94 % 1006,3 hPa 0,0 l/m 0 min 0 min 0 W/m 14,6 km/h (3 Bft)
07.11.2014 22:38 7,3 C 5,6 C 94 % 1006,3 hPa 0,0 l/m 0 min 0 min 0 W/m 12,6 km/h (3 Bft)
07.11.2014 22:40 7,3 C 5,6 C 94 % 1006,3 hPa 0,0 l/m 0 min 0 min 0 W/m 16,7 km/h (3 Bft)
07.11.2014 22:42 7,3 C 5,6 C 94 % 1006,3 hPa 0,0 l/m 0 min 0 min 0 W/m 12,6 km/h (3 Bft)
07.11.2014 22:44 7,3 C 5,0 C 94 % 1006,2 hPa 0,0 l/m 0 min 0 min 0 W/m 14,6 km/h (3 Bft)
07.11.2014 22:46 7,3 C 5,0 C 94 % 1006,2 hPa 0,0 l/m 0 min 0 min 0 W/m 12,6 km/h (3 Bft)
07.11.2014 22:48 7,3 C 5,0 C 94 % 1006,3 hPa 0,0 l/m 0 min 0 min 0 W/m 12,6 km/h (3 Bft)
07.11.2014 22:50 7,3 C 5,0 C 94 % 1006,3 hPa 0,0 l/m 0 min 0 min 0 W/m 12,6 km/h (3 Bft)
07.11.2014 22:52 7,3 C 5,0 C 94 % 1006,3 hPa 0,0 l/m 0 min 0 min 0 W/m 12,6 km/h (3 Bft)
07.11.2014 22:54 7,2 C 5,0 C 94 % 1006,3 hPa 0,0 l/m 0 min 0 min 0 W/m 12,6 km/h (3 Bft)
07.11.2014 22:56 7,2 C 5,0 C 94 % 1006,3 hPa 0,0 l/m 0 min 0 min 0 W/m 14,6 km/h (3 Bft)
07.11.2014 22:58 7,2 C 5,0 C 94 % 1006,3 hPa 0,0 l/m 0 min 0 min 0 W/m 14,6 km/h (3 Bft)
07.11.2014 23:00 7,2 C 5,0 C 94 % 1006,3 hPa 0,0 l/m 0 min 0 min 0 W/m 8,4 km/h (2 Bft)
07.11.2014 23:02 7,2 C 5,0 C 94 % 1006,4 hPa 0,0 l/m 0 min 0 min 0 W/m 12,6 km/h (3 Bft)
07.11.2014 23:04 7,2 C 5,0 C 94 % 1006,3 hPa 0,0 l/m 0 min 0 min 0 W/m 10,5 km/h (2 Bft)
07.11.2014 23:06 7,2 C 5,0 C 94 % 1006,3 hPa 0,0 l/m 0 min 0 min 0 W/m 10,5 km/h (2 Bft)
07.11.2014 23:08 7,2 C 5,0 C 94 % 1006,3 hPa 0,0 l/m 0 min 0 min 0 W/m 12,6 km/h (3 Bft)
07.11.2014 23:10 7,2 C 5,0 C 94 % 1006,3 hPa 0,0 l/m 0 min 0 min 0 W/m 14,6 km/h (3 Bft)
07.11.2014 23:12 7,1 C 5,0 C 94 % 1006,3 hPa 0,0 l/m 0 min 0 min 0 W/m 10,5 km/h (2 Bft)
07.11.2014 23:14 7,1 C 5,0 C 94 % 1006,3 hPa 0,0 l/m 0 min 0 min 0 W/m 10,5 km/h (2 Bft)
07.11.2014 23:16 7,1 C 5,0 C 94 % 1006,3 hPa 0,0 l/m 0 min 0 min 0 W/m 12,6 km/h (3 Bft)
07.11.2014 23:18 7,1 C 5,0 C 94 % 1006,3 hPa 0,0 l/m 0 min 0 min 0 W/m 16,7 km/h (3 Bft)
07.11.2014 23:20 7,0 C 5,0 C 94 % 1006,2 hPa 0,0 l/m 0 min 0 min 0 W/m 12,6 km/h (3 Bft)
07.11.2014 23:22 7,0 C 5,0 C 94 % 1006,2 hPa 0,0 l/m 0 min 0 min 0 W/m 12,6 km/h (3 Bft)
07.11.2014 23:24 7,0 C 5,0 C 94 % 1006,2 hPa 0,0 l/m 0 min 0 min 0 W/m 14,6 km/h (3 Bft)
07.11.2014 23:26 6,9 C 5,0 C 94 % 1006,2 hPa 0,0 l/m 0 min 0 min 0 W/m 14,6 km/h (3 Bft)
07.11.2014 23:28 6,9 C 5,0 C 94 % 1006,2 hPa 0,0 l/m 0 min 0 min 0 W/m 12,6 km/h (3 Bft)
07.11.2014 23:30 6,9 C 5,0 C 94 % 1006,2 hPa 0,0 l/m 0 min 0 min 0 W/m 16,7 km/h (3 Bft)
07.11.2014 23:32 6,9 C 5,0 C 94 % 1006,2 hPa 0,0 l/m 0 min 0 min 0 W/m 14,6 km/h (3 Bft)
07.11.2014 23:34 6,9 C 5,0 C 94 % 1006,2 hPa 0,0 l/m 0 min 0 min 0 W/m 10,5 km/h (2 Bft)
07.11.2014 23:36 6,9 C 5,0 C 94 % 1006,2 hPa 0,0 l/m 0 min 0 min 0 W/m 16,7 km/h (3 Bft)
07.11.2014 23:38 6,9 C 5,0 C 94 % 1006,2 hPa 0,0 l/m 0 min 0 min 0 W/m 16,7 km/h (3 Bft)
07.11.2014 23:40 6,9 C 5,0 C 94 % 1006,2 hPa 0,0 l/m 0 min 0 min 0 W/m 12,6 km/h (3 Bft)
07.11.2014 23:42 6,9 C 5,0 C 94 % 1006,2 hPa 0,0 l/m 0 min 0 min 0 W/m 12,6 km/h (3 Bft)
07.11.2014 23:44 6,9 C 5,0 C 95 % 1006,3 hPa 0,0 l/m 0 min 0 min 0 W/m 10,5 km/h (2 Bft)
07.11.2014 23:46 6,9 C 5,0 C 95 % 1006,2 hPa 0,0 l/m 0 min 0 min 0 W/m 12,6 km/h (3 Bft)
07.11.2014 23:48 6,9 C 5,0 C 95 % 1006,3 hPa 0,0 l/m 0 min 0 min 0 W/m 12,6 km/h (3 Bft)
07.11.2014 23:50 6,9 C 5,0 C 95 % 1006,3 hPa 0,0 l/m 0 min 0 min 0 W/m 10,5 km/h (2 Bft)
07.11.2014 23:52 6,9 C 5,0 C 95 % 1006,3 hPa 0,0 l/m 0 min 0 min 0 W/m 8,4 km/h (2 Bft)
07.11.2014 23:54 6,8 C 5,0 C 95 % 1006,4 hPa 0,0 l/m 0 min 0 min 0 W/m 10,5 km/h (2 Bft)
07.11.2014 23:56 6,8 C 5,0 C 95 % 1006,3 hPa 0,0 l/m 0 min 0 min 0 W/m 10,5 km/h (2 Bft)
07.11.2014 23:58 6,8 C 5,0 C 95 % 1006,4 hPa 0,0 l/m 0 min 0 min 0 W/m 8,4 km/h (2 Bft)
_ Min-Zeit 02:22 02:08 15:40 13:32 - - - - 01:26
Minimum _ 3,1 C 1,7 C 84 % 1001,9 hPa - - - - 6,3 km/h (2 Bft)
_ Max-Zeit 17:16 15:04 09:04 00:16 06:26 07:54 13:40 12:34 13:16
Maximum _ 8,9 C 7,8 C 97 % 1010,2 hPa 0,2 l/m 2 min 2 min 186 W/m 54,4 km/h
O-SO (7 Bft)
Durchschnitt _ 6,0 C 4,9 C 92 % 1005,4 hPa #0,4 l/m #14 min. #14 min. 78 W/m 21,0 km/h (4 Bft)
© 2014 W. Hausmann